SWR41G KLAX-LSZH
Flight info
| Callsign | SWR41G |
|---|---|
| Flight time | N/A |
| Altitude | 33000 |
| Route | OSHNN1 BEALE Q842 WINEN DCT TCH DCT BIL DCT GGW DCT DURUR DCT 55N097W/N0480F350 57N090W DCT KELMU DCT FEDDY DCT IKMAN/M084F350 DCT EMBOK DCT 64N050W/M084F370 64N040W 62N030W 59N020W DCT AGORI/N0478F370 DCT OSBOX DCT MIMKU DCT MAKUX/N0471F390 DCT SOSIM L15 KEPAD L151 TELBA/N0480F350 L151 MID UL612 VEULE DCT TEPRI UN491 POGZI DCT GELTA DCT MANAG DCT PEVIT DCT BLM BLM3G |
| Aircraft | B77W/H-SDE2E3FGHIJ5LORVWXY/LB1D1 |
Departure
| Time | 2026-04-23 08:12 |
|---|---|
| Airport | Los Angeles International Airport (KLAX) |
Arrival
| Time | N/A |
|---|---|
| Airport | Zürich Airport (LSZH) |
| Time | Latitude | Longitude | Altitude | Speed | Heading |
|---|---|---|---|---|---|
| 2026-04-23 07:45 | 33.94397 | -118.41136 | 138 ft | 0 kts | 83° |
| 2026-04-23 07:59 | 33.94397 | -118.41141 | 138 ft | 1 kts | 83° |
| 2026-04-23 07:59 | 33.94395 | -118.41152 | 138 ft | 2 kts | 80° |
| 2026-04-23 07:59 | 33.94391 | -118.41170 | 138 ft | 2 kts | 67° |
| 2026-04-23 08:00 | 33.94387 | -118.41180 | 138 ft | 2 kts | 60° |
| 2026-04-23 08:00 | 33.94379 | -118.41194 | 137 ft | 2 kts | 50° |
| 2026-04-23 08:00 | 33.94369 | -118.41207 | 137 ft | 2 kts | 39° |
| 2026-04-23 08:00 | 33.94357 | -118.41218 | 136 ft | 2 kts | 29° |
| 2026-04-23 08:01 | 33.94343 | -118.41225 | 136 ft | 2 kts | 18° |
| 2026-04-23 08:01 | 33.94329 | -118.41230 | 136 ft | 2 kts | 8° |
| 2026-04-23 08:01 | 33.94314 | -118.41231 | 136 ft | 2 kts | 357° |
| 2026-04-23 08:01 | 33.94306 | -118.41230 | 135 ft | 1 kts | 353° |
| 2026-04-23 08:02 | 33.94305 | -118.41230 | 135 ft | 0 kts | 353° |
| 2026-04-23 08:04 | 33.94306 | -118.41230 | 135 ft | 1 kts | 353° |
| 2026-04-23 08:04 | 33.94335 | -118.41234 | 136 ft | 6 kts | 354° |
| 2026-04-23 08:04 | 33.94392 | -118.41241 | 135 ft | 8 kts | 353° |
| 2026-04-23 08:04 | 33.94447 | -118.41249 | 135 ft | 7 kts | 353° |
| 2026-04-23 08:05 | 33.94494 | -118.41256 | 136 ft | 6 kts | 354° |
| 2026-04-23 08:05 | 33.94539 | -118.41263 | 136 ft | 8 kts | 353° |
| 2026-04-23 08:05 | 33.94595 | -118.41271 | 136 ft | 7 kts | 353° |
| 2026-04-23 08:05 | 33.94643 | -118.41279 | 136 ft | 6 kts | 353° |
| 2026-04-23 08:06 | 33.94692 | -118.41286 | 136 ft | 7 kts | 353° |
| 2026-04-23 08:06 | 33.94748 | -118.41290 | 136 ft | 8 kts | 11° |
| 2026-04-23 08:06 | 33.94796 | -118.41236 | 136 ft | 11 kts | 71° |
| 2026-04-23 08:06 | 33.94810 | -118.41142 | 137 ft | 10 kts | 83° |
| 2026-04-23 08:07 | 33.94819 | -118.41051 | 137 ft | 11 kts | 83° |
| 2026-04-23 08:07 | 33.94828 | -118.40958 | 136 ft | 10 kts | 83° |
| 2026-04-23 08:07 | 33.94838 | -118.40865 | 136 ft | 13 kts | 83° |
| 2026-04-23 08:07 | 33.94850 | -118.40741 | 135 ft | 14 kts | 83° |
| 2026-04-23 08:08 | 33.94863 | -118.40625 | 134 ft | 13 kts | 83° |
| 2026-04-23 08:08 | 33.94874 | -118.40514 | 133 ft | 12 kts | 83° |
| 2026-04-23 08:08 | 33.94885 | -118.40409 | 132 ft | 12 kts | 83° |
| 2026-04-23 08:08 | 33.94895 | -118.40308 | 131 ft | 12 kts | 83° |
| 2026-04-23 08:09 | 33.94906 | -118.40209 | 130 ft | 11 kts | 83° |
| 2026-04-23 08:09 | 33.94916 | -118.40111 | 130 ft | 11 kts | 83° |
| 2026-04-23 08:09 | 33.94925 | -118.40018 | 128 ft | 11 kts | 83° |
| 2026-04-23 08:09 | 33.94933 | -118.39970 | 127 ft | 0 kts | 71° |
| 2026-04-23 08:10 | 33.94933 | -118.39967 | 127 ft | 0 kts | 71° |
| 2026-04-23 08:10 | 33.94940 | -118.39951 | 126 ft | 0 kts | 61° |
| 2026-04-23 08:10 | 33.94986 | -118.39918 | 125 ft | 8 kts | 8° |
| 2026-04-23 08:11 | 33.95031 | -118.39943 | 124 ft | 6 kts | 295° |
| 2026-04-23 08:11 | 33.95036 | -118.39993 | 125 ft | 5 kts | 269° |
| 2026-04-23 08:11 | 33.95015 | -118.40213 | 128 ft | 64 kts | 263° |
| 2026-04-23 08:11 | 33.94925 | -118.41083 | 136 ft | 144 kts | 263° |
| 2026-04-23 08:12 | 33.94776 | -118.42491 | 460 ft | 186 kts | 263° |
| 2026-04-23 08:12 | 33.94601 | -118.44003 | 1496 ft | 186 kts | 264° |
| 2026-04-23 08:12 | 33.94452 | -118.45571 | 1957 ft | 198 kts | 265° |
| 2026-04-23 08:12 | 33.94315 | -118.47298 | 2351 ft | 214 kts | 269° |
| 2026-04-23 08:13 | 33.94275 | -118.49135 | 2790 ft | 229 kts | 270° |
| 2026-04-23 08:13 | 33.94226 | -118.51107 | 3256 ft | 244 kts | 269° |
| 2026-04-23 08:13 | 33.94070 | -118.53178 | 3887 ft | 254 kts | 266° |
| 2026-04-23 08:13 | 33.93887 | -118.55310 | 4611 ft | 262 kts | 266° |
| 2026-04-23 08:14 | 33.93709 | -118.57494 | 5496 ft | 263 kts | 267° |
| 2026-04-23 08:14 | 33.93528 | -118.59641 | 6365 ft | 263 kts | 263° |
| 2026-04-23 08:14 | 33.92889 | -118.61691 | 7206 ft | 269 kts | 240° |
| 2026-04-23 08:14 | 33.91541 | -118.63323 | 7943 ft | 282 kts | 216° |
| 2026-04-23 08:15 | 33.89681 | -118.64115 | 8672 ft | 294 kts | 189° |
| 2026-04-23 08:15 | 33.87601 | -118.64089 | 9388 ft | 303 kts | 180° |
| 2026-04-23 08:15 | 33.85496 | -118.63874 | 10117 ft | 307 kts | 177° |
| 2026-04-23 08:15 | 33.83366 | -118.63294 | 10598 ft | 325 kts | 165° |
| 2026-04-23 08:16 | 33.81221 | -118.62109 | 10951 ft | 348 kts | 151° |
| 2026-04-23 08:16 | 33.79225 | -118.60323 | 11346 ft | 367 kts | 144° |
| 2026-04-23 08:16 | 33.77141 | -118.58413 | 11734 ft | 384 kts | 147° |
| 2026-04-23 08:16 | 33.74925 | -118.56508 | 12153 ft | 400 kts | 148° |
| 2026-04-23 08:17 | 33.72641 | -118.54495 | 12578 ft | 418 kts | 142° |
| 2026-04-23 08:17 | 33.70552 | -118.51946 | 13242 ft | 430 kts | 131° |
| 2026-04-23 08:17 | 33.68856 | -118.48951 | 13995 ft | 437 kts | 120° |
| 2026-04-23 08:17 | 33.67606 | -118.45606 | 14774 ft | 444 kts | 111° |
| 2026-04-23 08:18 | 33.66608 | -118.42120 | 15546 ft | 448 kts | 110° |
| 2026-04-23 08:18 | 33.65594 | -118.38544 | 16375 ft | 451 kts | 110° |
| 2026-04-23 08:18 | 33.64764 | -118.34904 | 17078 ft | 456 kts | 102° |
| 2026-04-23 08:18 | 33.64428 | -118.31119 | 17644 ft | 465 kts | 92° |
| 2026-04-23 08:19 | 33.64430 | -118.27196 | 18236 ft | 472 kts | 86° |
| 2026-04-23 08:19 | 33.64848 | -118.23315 | 18966 ft | 474 kts | 77° |
| 2026-04-23 08:19 | 33.65778 | -118.19540 | 19609 ft | 476 kts | 66° |
| 2026-04-23 08:19 | 33.67199 | -118.15967 | 20214 ft | 478 kts | 56° |
| 2026-04-23 08:20 | 33.69088 | -118.12668 | 20800 ft | 478 kts | 46° |
| 2026-04-23 08:20 | 33.71356 | -118.09774 | 21435 ft | 477 kts | 38° |
| 2026-04-23 08:20 | 33.73787 | -118.07043 | 22128 ft | 479 kts | 38° |
| 2026-04-23 08:20 | 33.76214 | -118.04323 | 22747 ft | 483 kts | 38° |
| 2026-04-23 08:21 | 33.78672 | -118.01550 | 23334 ft | 487 kts | 38° |
| 2026-04-23 08:21 | 33.81142 | -117.98749 | 23764 ft | 495 kts | 38° |
| 2026-04-23 08:21 | 33.83665 | -117.95873 | 24299 ft | 500 kts | 38° |
| 2026-04-23 08:21 | 33.86175 | -117.93002 | 24891 ft | 503 kts | 38° |
| 2026-04-23 08:22 | 33.88715 | -117.90088 | 25424 ft | 507 kts | 38° |
| 2026-04-23 08:22 | 33.91260 | -117.87163 | 25942 ft | 512 kts | 38° |
| 2026-04-23 08:22 | 33.93842 | -117.84190 | 26410 ft | 517 kts | 38° |
| 2026-04-23 08:22 | 33.96440 | -117.81194 | 26904 ft | 522 kts | 38° |
| 2026-04-23 08:23 | 33.99065 | -117.78162 | 27397 ft | 526 kts | 38° |
| 2026-04-23 08:23 | 34.01705 | -117.75108 | 27940 ft | 529 kts | 38° |
| 2026-04-23 08:23 | 34.04392 | -117.71999 | 28351 ft | 534 kts | 38° |
| 2026-04-23 08:23 | 34.07079 | -117.68885 | 28795 ft | 539 kts | 38° |
| 2026-04-23 08:24 | 34.09777 | -117.65754 | 29282 ft | 543 kts | 38° |
| 2026-04-23 08:24 | 34.12498 | -117.62592 | 29815 ft | 545 kts | 38° |
| 2026-04-23 08:24 | 34.15248 | -117.59393 | 30321 ft | 547 kts | 38° |
| 2026-04-23 08:24 | 34.17946 | -117.56253 | 30897 ft | 547 kts | 38° |
| 2026-04-23 08:25 | 34.20679 | -117.53067 | 31430 ft | 548 kts | 37° |
| 2026-04-23 08:25 | 34.23438 | -117.49851 | 31817 ft | 551 kts | 37° |
| 2026-04-23 08:25 | 34.26192 | -117.46635 | 32325 ft | 551 kts | 37° |
| 2026-04-23 08:25 | 34.28947 | -117.43416 | 32849 ft | 551 kts | 36° |
| 2026-04-23 08:26 | 34.31720 | -117.40173 | 33124 ft | 555 kts | 36° |
| 2026-04-23 08:26 | 34.34518 | -117.36899 | 33143 ft | 556 kts | 37° |
| 2026-04-23 08:26 | 34.37282 | -117.33656 | 33039 ft | 551 kts | 37° |
| 2026-04-23 08:26 | 34.40080 | -117.30373 | 33094 ft | 553 kts | 37° |
| 2026-04-23 08:27 | 34.45610 | -117.23876 | 33078 ft | 552 kts | 37° |
| 2026-04-23 08:27 | 34.51145 | -117.17362 | 33157 ft | 554 kts | 37° |
| 2026-04-23 08:28 | 34.53883 | -117.14136 | 33055 ft | 553 kts | 37° |
| 2026-04-23 08:28 | 34.56617 | -117.10907 | 33087 ft | 549 kts | 37° |
| 2026-04-23 08:28 | 34.62074 | -117.04456 | 33058 ft | 543 kts | 37° |
| 2026-04-23 08:29 | 34.67482 | -116.98056 | 32987 ft | 543 kts | 37° |
| 2026-04-23 08:29 | 34.72953 | -116.91571 | 33088 ft | 549 kts | 37° |
| 2026-04-23 08:30 | 34.78345 | -116.85157 | 33059 ft | 539 kts | 37° |
| 2026-04-23 08:30 | 34.83768 | -116.78705 | 33101 ft | 548 kts | 37° |
| 2026-04-23 08:31 | 34.89166 | -116.72262 | 33072 ft | 541 kts | 37° |
| 2026-04-23 08:31 | 34.94532 | -116.65848 | 33073 ft | 542 kts | 37° |
| 2026-04-23 08:32 | 34.99887 | -116.59433 | 33031 ft | 541 kts | 37° |
| 2026-04-23 08:32 | 35.05273 | -116.52972 | 33036 ft | 542 kts | 38° |
| 2026-04-23 08:33 | 35.10701 | -116.46448 | 33028 ft | 549 kts | 37° |
| 2026-04-23 08:33 | 35.16073 | -116.39970 | 33036 ft | 543 kts | 37° |
| 2026-04-23 08:34 | 35.21451 | -116.33479 | 33020 ft | 544 kts | 38° |
| 2026-04-23 08:34 | 35.26833 | -116.26971 | 33011 ft | 546 kts | 38° |
| 2026-04-23 08:35 | 35.32225 | -116.20436 | 33012 ft | 545 kts | 38° |
| 2026-04-23 08:35 | 35.37609 | -116.13895 | 33004 ft | 543 kts | 37° |
| 2026-04-23 08:36 | 35.42971 | -116.07374 | 33011 ft | 545 kts | 38° |
| 2026-04-23 08:36 | 35.48343 | -116.00825 | 33002 ft | 547 kts | 37° |
| 2026-04-23 08:37 | 35.53727 | -115.94248 | 33010 ft | 548 kts | 38° |
| 2026-04-23 08:37 | 35.59100 | -115.87669 | 33011 ft | 545 kts | 37° |
| 2026-04-23 08:38 | 35.64479 | -115.81071 | 33020 ft | 545 kts | 37° |
| 2026-04-23 08:38 | 35.69806 | -115.74524 | 33016 ft | 545 kts | 37° |
| 2026-04-23 08:39 | 35.75172 | -115.67920 | 33021 ft | 550 kts | 37° |
| 2026-04-23 08:39 | 35.80579 | -115.61245 | 33031 ft | 546 kts | 37° |
| 2026-04-23 08:40 | 35.85965 | -115.54587 | 33038 ft | 549 kts | 37° |
| 2026-04-23 08:40 | 35.91310 | -115.47962 | 33043 ft | 547 kts | 37° |
| 2026-04-23 08:41 | 35.96673 | -115.41304 | 33014 ft | 548 kts | 37° |
| 2026-04-23 08:41 | 36.02039 | -115.34628 | 33003 ft | 548 kts | 37° |
| 2026-04-23 08:42 | 36.07408 | -115.27937 | 32984 ft | 550 kts | 37° |
| 2026-04-23 08:42 | 36.12800 | -115.21201 | 32972 ft | 552 kts | 38° |
| 2026-04-23 08:43 | 36.18194 | -115.14449 | 32967 ft | 551 kts | 37° |
| 2026-04-23 08:43 | 36.23567 | -115.07709 | 32957 ft | 556 kts | 37° |
| 2026-04-23 08:44 | 36.29004 | -115.00874 | 32957 ft | 553 kts | 37° |
| 2026-04-23 08:44 | 36.34358 | -114.94126 | 32933 ft | 549 kts | 37° |
| 2026-04-23 08:45 | 36.39760 | -114.87310 | 32966 ft | 553 kts | 38° |
| 2026-04-23 08:45 | 36.45138 | -114.80509 | 32981 ft | 557 kts | 37° |
| 2026-04-23 08:46 | 36.50523 | -114.73679 | 32986 ft | 551 kts | 37° |
| 2026-04-23 08:46 | 36.55936 | -114.66808 | 32991 ft | 558 kts | 37° |
| 2026-04-23 08:47 | 36.61333 | -114.59933 | 33009 ft | 555 kts | 37° |
| 2026-04-23 08:47 | 36.66689 | -114.53101 | 33005 ft | 554 kts | 37° |
| 2026-04-23 08:48 | 36.72268 | -114.46530 | 33000 ft | 545 kts | 27° |
| 2026-04-23 08:48 | 36.78528 | -114.41476 | 33015 ft | 535 kts | 21° |
| 2026-04-23 08:49 | 36.84864 | -114.36567 | 33022 ft | 533 kts | 21° |
| 2026-04-23 08:49 | 36.91174 | -114.31648 | 33000 ft | 536 kts | 22° |
| 2026-04-23 08:50 | 36.97459 | -114.26720 | 33021 ft | 536 kts | 22° |
| 2026-04-23 08:50 | 37.03785 | -114.21738 | 33005 ft | 534 kts | 22° |
| 2026-04-23 08:51 | 37.10066 | -114.16781 | 33032 ft | 538 kts | 22° |
| 2026-04-23 08:51 | 37.16378 | -114.11782 | 33025 ft | 534 kts | 22° |
| 2026-04-23 08:52 | 37.22633 | -114.06819 | 33014 ft | 537 kts | 23° |
| 2026-04-23 08:52 | 37.28978 | -114.01777 | 33010 ft | 539 kts | 22° |
| 2026-04-23 08:53 | 37.35296 | -113.96738 | 33077 ft | 538 kts | 22° |
| 2026-04-23 08:53 | 37.41613 | -113.91695 | 33054 ft | 538 kts | 22° |
| 2026-04-23 08:54 | 37.47893 | -113.86668 | 33041 ft | 537 kts | 23° |
| 2026-04-23 08:54 | 37.54193 | -113.81620 | 33060 ft | 539 kts | 23° |
| 2026-04-23 08:55 | 37.60527 | -113.76527 | 33078 ft | 538 kts | 23° |
| 2026-04-23 08:55 | 37.66799 | -113.71477 | 33054 ft | 536 kts | 23° |
| 2026-04-23 08:56 | 37.73094 | -113.66399 | 33069 ft | 537 kts | 22° |
| 2026-04-23 08:56 | 37.79391 | -113.61311 | 33111 ft | 543 kts | 23° |
| 2026-04-23 08:57 | 37.85753 | -113.56157 | 33093 ft | 540 kts | 23° |
| 2026-04-23 08:57 | 37.92087 | -113.51049 | 33088 ft | 536 kts | 20° |
| 2026-04-23 08:58 | 37.98772 | -113.47251 | 33124 ft | 526 kts | 11° |
| 2026-04-23 08:58 | 38.05523 | -113.43894 | 33074 ft | 520 kts | 11° |
| 2026-04-23 08:59 | 38.12278 | -113.40531 | 33091 ft | 523 kts | 12° |
| 2026-04-23 08:59 | 38.18994 | -113.37173 | 33073 ft | 521 kts | 11° |
| 2026-04-23 09:00 | 38.25769 | -113.33777 | 33056 ft | 523 kts | 12° |
| 2026-04-23 09:00 | 38.32519 | -113.30381 | 33063 ft | 519 kts | 13° |
| 2026-04-23 09:01 | 38.39219 | -113.27008 | 33045 ft | 524 kts | 12° |
| 2026-04-23 09:01 | 38.46002 | -113.23582 | 33068 ft | 520 kts | 12° |
| 2026-04-23 09:02 | 38.52689 | -113.20197 | 33053 ft | 521 kts | 13° |
| 2026-04-23 09:02 | 38.59430 | -113.16782 | 33063 ft | 520 kts | 13° |
| 2026-04-23 09:03 | 38.66093 | -113.13392 | 33086 ft | 514 kts | 13° |
| 2026-04-23 09:03 | 38.72748 | -113.10007 | 33096 ft | 515 kts | 13° |
| 2026-04-23 09:04 | 38.79456 | -113.06588 | 33046 ft | 519 kts | 14° |
| 2026-04-23 09:04 | 38.86132 | -113.03173 | 33056 ft | 515 kts | 14° |
| 2026-04-23 09:05 | 38.92869 | -112.99726 | 33060 ft | 520 kts | 14° |
| 2026-04-23 09:05 | 38.99538 | -112.96300 | 33069 ft | 515 kts | 15° |
| 2026-04-23 09:06 | 39.06195 | -112.92878 | 33081 ft | 517 kts | 15° |
| 2026-04-23 09:06 | 39.12863 | -112.89439 | 33064 ft | 512 kts | 15° |
| 2026-04-23 09:07 | 39.19498 | -112.86015 | 33066 ft | 509 kts | 16° |
| 2026-04-23 09:07 | 39.26002 | -112.82649 | 33075 ft | 511 kts | 15° |
| 2026-04-23 09:08 | 39.32606 | -112.79224 | 33063 ft | 505 kts | 16° |
| 2026-04-23 09:08 | 39.39097 | -112.75854 | 33063 ft | 510 kts | 15° |
| 2026-04-23 09:09 | 39.45735 | -112.72400 | 33091 ft | 511 kts | 15° |
| 2026-04-23 09:09 | 39.52276 | -112.68984 | 33080 ft | 504 kts | 15° |
| 2026-04-23 09:10 | 39.62060 | -112.63868 | 33071 ft | 503 kts | 16° |
| 2026-04-23 09:11 | 39.68609 | -112.60437 | 33055 ft | 510 kts | 17° |
| 2026-04-23 09:11 | 39.75131 | -112.57008 | 33046 ft | 501 kts | 17° |
| 2026-04-23 09:12 | 39.81589 | -112.53610 | 33055 ft | 504 kts | 17° |
| 2026-04-23 09:12 | 39.88052 | -112.50200 | 33045 ft | 501 kts | 17° |
| 2026-04-23 09:13 | 39.94513 | -112.46785 | 33028 ft | 504 kts | 17° |
| 2026-04-23 09:13 | 40.00985 | -112.43356 | 33018 ft | 497 kts | 18° |
| 2026-04-23 09:14 | 40.07399 | -112.39951 | 32946 ft | 496 kts | 18° |
| 2026-04-23 09:14 | 40.10608 | -112.38248 | 33064 ft | 503 kts | 18° |
| 2026-04-23 09:14 | 40.13829 | -112.36534 | 33041 ft | 502 kts | 18° |
| 2026-04-23 09:15 | 40.20237 | -112.33116 | 33028 ft | 494 kts | 18° |
| 2026-04-23 09:15 | 40.26646 | -112.29695 | 33022 ft | 500 kts | 18° |
| 2026-04-23 09:16 | 40.33073 | -112.26256 | 33025 ft | 497 kts | 19° |
| 2026-04-23 09:16 | 40.39453 | -112.22834 | 32987 ft | 499 kts | 18° |
| 2026-04-23 09:16 | 40.42703 | -112.21091 | 33102 ft | 503 kts | 19° |
| 2026-04-23 09:17 | 40.45898 | -112.19372 | 33069 ft | 495 kts | 19° |
| 2026-04-23 09:17 | 40.52210 | -112.15972 | 33024 ft | 495 kts | 18° |
| 2026-04-23 09:18 | 40.58643 | -112.12504 | 33106 ft | 502 kts | 19° |
| 2026-04-23 09:18 | 40.65022 | -112.09051 | 33067 ft | 490 kts | 19° |
| 2026-04-23 09:19 | 40.71370 | -112.05615 | 33097 ft | 499 kts | 19° |
| 2026-04-23 09:19 | 40.77694 | -112.02180 | 33115 ft | 491 kts | 19° |
| 2026-04-23 09:20 | 40.84045 | -111.98725 | 33087 ft | 496 kts | 19° |
| 2026-04-23 09:20 | 40.90314 | -111.95013 | 33026 ft | 494 kts | 22° |
| 2026-04-23 09:21 | 40.96507 | -111.91126 | 33110 ft | 493 kts | 22° |
| 2026-04-23 09:21 | 41.02701 | -111.87249 | 33044 ft | 490 kts | 22° |
| 2026-04-23 09:22 | 41.08887 | -111.83383 | 33062 ft | 495 kts | 22° |
| 2026-04-23 09:22 | 41.15057 | -111.79521 | 33051 ft | 491 kts | 22° |
| 2026-04-23 09:23 | 41.21285 | -111.75622 | 33090 ft | 495 kts | 22° |
| 2026-04-23 09:23 | 41.27468 | -111.71741 | 33041 ft | 487 kts | 22° |
| 2026-04-23 09:24 | 41.33665 | -111.67847 | 33056 ft | 493 kts | 22° |
| 2026-04-23 09:24 | 41.39778 | -111.63995 | 32980 ft | 485 kts | 22° |
| 2026-04-23 09:25 | 41.45963 | -111.60094 | 32989 ft | 492 kts | 22° |
| 2026-04-23 09:25 | 41.52077 | -111.56226 | 32890 ft | 484 kts | 22° |
| 2026-04-23 09:26 | 41.58199 | -111.52348 | 32968 ft | 492 kts | 22° |
| 2026-04-23 09:26 | 41.64297 | -111.48475 | 32901 ft | 487 kts | 22° |
| 2026-04-23 09:27 | 41.70483 | -111.44540 | 32954 ft | 491 kts | 22° |
| 2026-04-23 09:27 | 41.76594 | -111.40641 | 32957 ft | 486 kts | 22° |
| 2026-04-23 09:28 | 41.82676 | -111.36755 | 32917 ft | 487 kts | 22° |
| 2026-04-23 09:28 | 41.88743 | -111.32869 | 32893 ft | 485 kts | 22° |
| 2026-04-23 09:29 | 41.94910 | -111.28912 | 32924 ft | 488 kts | 23° |
| 2026-04-23 09:29 | 42.00991 | -111.24999 | 32928 ft | 485 kts | 22° |
| 2026-04-23 09:30 | 42.07086 | -111.21072 | 32926 ft | 489 kts | 23° |
| 2026-04-23 09:30 | 42.13217 | -111.17111 | 32894 ft | 485 kts | 23° |
| 2026-04-23 09:31 | 42.19290 | -111.13180 | 32896 ft | 488 kts | 23° |
| 2026-04-23 09:31 | 42.25382 | -111.09229 | 32886 ft | 486 kts | 23° |
| 2026-04-23 09:32 | 42.31493 | -111.05255 | 32864 ft | 485 kts | 23° |
| 2026-04-23 09:32 | 42.37528 | -111.01324 | 32860 ft | 484 kts | 23° |
| 2026-04-23 09:33 | 42.43622 | -110.97345 | 32894 ft | 486 kts | 23° |
| 2026-04-23 09:33 | 42.49691 | -110.93373 | 32891 ft | 485 kts | 23° |
| 2026-04-23 09:34 | 42.55782 | -110.89380 | 32917 ft | 490 kts | 23° |
| 2026-04-23 09:34 | 42.61874 | -110.85376 | 33024 ft | 487 kts | 23° |
| 2026-04-23 09:35 | 42.67915 | -110.81396 | 32958 ft | 485 kts | 23° |
| 2026-04-23 09:35 | 42.74014 | -110.77371 | 32941 ft | 485 kts | 24° |
| 2026-04-23 09:36 | 42.80065 | -110.73369 | 32928 ft | 490 kts | 23° |
| 2026-04-23 09:36 | 42.86147 | -110.69336 | 32886 ft | 485 kts | 24° |
| 2026-04-23 09:37 | 42.92200 | -110.65314 | 32771 ft | 485 kts | 23° |
| 2026-04-23 09:37 | 42.95222 | -110.63304 | 32883 ft | 489 kts | 24° |
| 2026-04-23 09:37 | 42.98279 | -110.61267 | 32862 ft | 487 kts | 23° |
| 2026-04-23 09:38 | 43.04324 | -110.57232 | 32843 ft | 485 kts | 23° |
| 2026-04-23 09:38 | 43.10417 | -110.53158 | 32867 ft | 488 kts | 23° |
| 2026-04-23 09:39 | 43.16492 | -110.49084 | 32868 ft | 483 kts | 24° |
| 2026-04-23 09:39 | 43.22525 | -110.45033 | 32890 ft | 490 kts | 23° |
| 2026-04-23 09:40 | 43.28621 | -110.40927 | 32872 ft | 482 kts | 23° |
| 2026-04-23 09:40 | 43.34625 | -110.36876 | 32887 ft | 483 kts | 24° |
| 2026-04-23 09:41 | 43.40639 | -110.32808 | 32809 ft | 482 kts | 24° |
| 2026-04-23 09:41 | 43.46650 | -110.28735 | 32845 ft | 487 kts | 24° |
| 2026-04-23 09:42 | 43.52692 | -110.24628 | 32847 ft | 483 kts | 24° |
| 2026-04-23 09:42 | 43.58704 | -110.20535 | 32825 ft | 482 kts | 24° |
| 2026-04-23 09:43 | 43.64709 | -110.16438 | 32792 ft | 481 kts | 24° |
| 2026-04-23 09:43 | 43.70729 | -110.12321 | 32848 ft | 483 kts | 25° |
| 2026-04-23 09:44 | 43.76684 | -110.08239 | 32782 ft | 481 kts | 24° |
| 2026-04-23 09:44 | 43.82693 | -110.04112 | 32864 ft | 484 kts | 25° |
| 2026-04-23 09:45 | 43.88655 | -110.00005 | 32785 ft | 476 kts | 25° |
| 2026-04-23 09:45 | 43.94678 | -109.95850 | 32783 ft | 483 kts | 25° |
| 2026-04-23 09:46 | 44.00660 | -109.91711 | 32804 ft | 478 kts | 25° |
| 2026-04-23 09:46 | 44.06572 | -109.87614 | 32781 ft | 484 kts | 25° |
| 2026-04-23 09:47 | 44.12604 | -109.83422 | 32745 ft | 479 kts | 25° |
| 2026-04-23 09:47 | 44.18564 | -109.79272 | 32675 ft | 476 kts | 25° |
| 2026-04-23 09:48 | 44.24519 | -109.75115 | 32725 ft | 477 kts | 25° |
| 2026-04-23 09:48 | 44.30396 | -109.71004 | 32702 ft | 478 kts | 25° |
| 2026-04-23 09:49 | 44.36334 | -109.66840 | 32714 ft | 473 kts | 25° |
| 2026-04-23 09:49 | 44.42244 | -109.62688 | 32744 ft | 479 kts | 25° |
| 2026-04-23 09:50 | 44.48121 | -109.58547 | 32748 ft | 477 kts | 25° |
| 2026-04-23 09:50 | 44.54026 | -109.54378 | 32745 ft | 470 kts | 25° |
| 2026-04-23 09:51 | 44.59880 | -109.50236 | 32765 ft | 475 kts | 25° |
| 2026-04-23 09:51 | 44.65762 | -109.46066 | 32719 ft | 470 kts | 26° |
| 2026-04-23 09:52 | 44.71619 | -109.41902 | 32733 ft | 474 kts | 26° |
| 2026-04-23 09:52 | 44.77462 | -109.37740 | 32720 ft | 469 kts | 26° |
| 2026-04-23 09:53 | 44.83284 | -109.33583 | 32727 ft | 473 kts | 26° |
| 2026-04-23 09:53 | 44.89133 | -109.29397 | 32737 ft | 471 kts | 26° |
| 2026-04-23 09:54 | 44.94976 | -109.25205 | 32678 ft | 474 kts | 26° |
| 2026-04-23 09:54 | 45.00854 | -109.20979 | 32636 ft | 470 kts | 26° |
| 2026-04-23 09:55 | 45.06678 | -109.16782 | 32703 ft | 475 kts | 27° |
| 2026-04-23 09:55 | 45.12526 | -109.12558 | 32649 ft | 470 kts | 26° |
| 2026-04-23 09:56 | 45.18413 | -109.08296 | 32667 ft | 475 kts | 27° |
| 2026-04-23 09:56 | 45.24201 | -109.04095 | 32611 ft | 466 kts | 26° |
| 2026-04-23 09:57 | 45.30023 | -108.99861 | 32608 ft | 473 kts | 26° |
| 2026-04-23 09:57 | 45.35837 | -108.95622 | 32620 ft | 469 kts | 26° |
| 2026-04-23 09:58 | 45.41603 | -108.91409 | 32636 ft | 468 kts | 27° |
| 2026-04-23 09:58 | 45.47390 | -108.87170 | 32609 ft | 468 kts | 27° |
| 2026-04-23 09:59 | 45.53175 | -108.82925 | 32620 ft | 472 kts | 27° |
| 2026-04-23 09:59 | 45.58991 | -108.78645 | 32666 ft | 469 kts | 27° |
| 2026-04-23 10:00 | 45.64753 | -108.74394 | 32578 ft | 461 kts | 27° |
| 2026-04-23 10:00 | 45.70483 | -108.70158 | 32632 ft | 471 kts | 27° |
| 2026-04-23 10:01 | 45.76302 | -108.65846 | 32654 ft | 468 kts | 27° |
| 2026-04-23 10:01 | 45.82025 | -108.61585 | 32615 ft | 470 kts | 28° |
| 2026-04-23 10:02 | 45.87767 | -108.57045 | 32640 ft | 469 kts | 29° |
| 2026-04-23 10:02 | 45.93450 | -108.52527 | 32615 ft | 469 kts | 28° |
| 2026-04-23 10:03 | 45.99200 | -108.47953 | 32612 ft | 469 kts | 28° |
| 2026-04-23 10:03 | 46.04897 | -108.43415 | 32648 ft | 472 kts | 28° |
| 2026-04-23 10:04 | 46.10666 | -108.38811 | 32577 ft | 473 kts | 28° |
| 2026-04-23 10:04 | 46.16392 | -108.34232 | 32590 ft | 467 kts | 29° |
| 2026-04-23 10:05 | 46.22037 | -108.29707 | 32534 ft | 471 kts | 29° |
| 2026-04-23 10:05 | 46.27759 | -108.25111 | 32522 ft | 467 kts | 29° |
| 2026-04-23 10:06 | 46.33423 | -108.20550 | 32576 ft | 469 kts | 29° |
| 2026-04-23 10:06 | 46.39097 | -108.15970 | 32541 ft | 468 kts | 29° |
| 2026-04-23 10:07 | 46.44751 | -108.11395 | 32465 ft | 464 kts | 29° |
| 2026-04-23 10:07 | 46.50456 | -108.06768 | 32537 ft | 473 kts | 29° |
| 2026-04-23 10:08 | 46.56159 | -108.02132 | 32499 ft | 467 kts | 29° |
| 2026-04-23 10:08 | 46.61850 | -107.97494 | 32524 ft | 469 kts | 29° |
| 2026-04-23 10:09 | 46.70331 | -107.90561 | 32450 ft | 465 kts | 29° |
| 2026-04-23 10:09 | 46.75986 | -107.85924 | 32528 ft | 471 kts | 29° |
| 2026-04-23 10:10 | 46.81634 | -107.81281 | 32418 ft | 465 kts | 29° |
| 2026-04-23 10:10 | 46.84485 | -107.78934 | 32559 ft | 473 kts | 29° |
| 2026-04-23 10:10 | 46.87319 | -107.76597 | 32519 ft | 471 kts | 29° |
| 2026-04-23 10:11 | 46.92948 | -107.71948 | 32439 ft | 467 kts | 29° |
| 2026-04-23 10:11 | 46.98711 | -107.67176 | 32564 ft | 476 kts | 29° |
| 2026-04-23 10:12 | 47.04386 | -107.62465 | 32482 ft | 465 kts | 29° |
| 2026-04-23 10:12 | 47.07184 | -107.60139 | 32370 ft | 464 kts | 29° |
| 2026-04-23 10:12 | 47.10028 | -107.57771 | 32485 ft | 471 kts | 29° |
| 2026-04-23 10:13 | 47.15710 | -107.53031 | 32427 ft | 468 kts | 29° |
| 2026-04-23 10:13 | 47.21409 | -107.48265 | 32458 ft | 473 kts | 29° |
| 2026-04-23 10:14 | 47.27049 | -107.43537 | 32450 ft | 469 kts | 29° |
| 2026-04-23 10:14 | 47.32764 | -107.38734 | 32469 ft | 474 kts | 29° |
| 2026-04-23 10:15 | 47.38430 | -107.33960 | 32418 ft | 469 kts | 30° |
| 2026-04-23 10:15 | 47.44125 | -107.29150 | 32441 ft | 475 kts | 30° |
| 2026-04-23 10:16 | 47.49860 | -107.24294 | 32438 ft | 472 kts | 30° |
| 2026-04-23 10:16 | 47.55516 | -107.19492 | 32326 ft | 475 kts | 30° |
| 2026-04-23 10:17 | 47.58395 | -107.17043 | 32435 ft | 481 kts | 30° |
| 2026-04-23 10:17 | 47.61302 | -107.14568 | 32455 ft | 478 kts | 30° |
| 2026-04-23 10:17 | 47.64175 | -107.12118 | 32328 ft | 472 kts | 30° |
| 2026-04-23 10:17 | 47.67034 | -107.09676 | 32370 ft | 478 kts | 30° |
| 2026-04-23 10:18 | 47.72779 | -107.04762 | 32239 ft | 475 kts | 30° |
| 2026-04-23 10:18 | 47.78540 | -106.99822 | 32413 ft | 484 kts | 30° |
| 2026-04-23 10:19 | 47.81459 | -106.97314 | 32311 ft | 478 kts | 30° |
| 2026-04-23 10:19 | 47.84328 | -106.94845 | 32311 ft | 476 kts | 30° |
| 2026-04-23 10:19 | 47.90069 | -106.89896 | 32415 ft | 484 kts | 30° |
| 2026-04-23 10:20 | 47.92973 | -106.87387 | 32230 ft | 479 kts | 30° |
| 2026-04-23 10:20 | 47.95857 | -106.84892 | 32379 ft | 478 kts | 30° |
| 2026-04-23 10:20 | 47.98734 | -106.82401 | 32214 ft | 479 kts | 30° |
| 2026-04-23 10:20 | 48.01609 | -106.79907 | 32363 ft | 483 kts | 30° |
| 2026-04-23 10:21 | 48.07404 | -106.74873 | 32404 ft | 481 kts | 30° |
| 2026-04-23 10:21 | 48.13148 | -106.69868 | 32417 ft | 482 kts | 30° |
| 2026-04-23 10:22 | 48.18910 | -106.64836 | 32409 ft | 478 kts | 31° |
| 2026-04-23 10:22 | 48.24780 | -106.60016 | 32425 ft | 485 kts | 24° |
| 2026-04-23 10:23 | 48.30951 | -106.56007 | 32462 ft | 481 kts | 25° |
| 2026-04-23 10:23 | 48.37124 | -106.51945 | 32426 ft | 494 kts | 25° |
| 2026-04-23 10:24 | 48.43373 | -106.47776 | 32268 ft | 487 kts | 25° |
| 2026-04-23 10:24 | 48.49542 | -106.43625 | 32284 ft | 490 kts | 25° |
| 2026-04-23 10:25 | 48.55774 | -106.39407 | 32306 ft | 489 kts | 26° |
| 2026-04-23 10:25 | 48.61968 | -106.35197 | 32318 ft | 492 kts | 26° |
| 2026-04-23 10:26 | 48.68165 | -106.30969 | 32353 ft | 486 kts | 26° |
| 2026-04-23 10:26 | 48.74361 | -106.26728 | 32329 ft | 494 kts | 26° |
| 2026-04-23 10:27 | 48.80612 | -106.22438 | 32362 ft | 489 kts | 27° |
| 2026-04-23 10:27 | 48.86798 | -106.18180 | 32290 ft | 488 kts | 27° |
| 2026-04-23 10:28 | 48.92974 | -106.13915 | 32258 ft | 494 kts | 27° |
| 2026-04-23 10:28 | 48.96093 | -106.11758 | 32368 ft | 494 kts | 27° |
| 2026-04-23 10:28 | 48.99244 | -106.09575 | 32271 ft | 492 kts | 27° |
| 2026-04-23 10:29 | 49.05440 | -106.05274 | 32295 ft | 493 kts | 27° |
| 2026-04-23 10:29 | 49.11660 | -106.00945 | 32318 ft | 490 kts | 27° |
| 2026-04-23 10:30 | 49.17819 | -105.96647 | 32300 ft | 488 kts | 27° |
| 2026-04-23 10:30 | 49.24058 | -105.92277 | 32312 ft | 497 kts | 27° |
| 2026-04-23 10:31 | 49.30306 | -105.87894 | 32301 ft | 491 kts | 27° |
| 2026-04-23 10:31 | 49.36550 | -105.83496 | 32386 ft | 498 kts | 27° |
| 2026-04-23 10:32 | 49.39654 | -105.81308 | 32276 ft | 491 kts | 27° |
| 2026-04-23 10:32 | 49.42762 | -105.79115 | 32321 ft | 491 kts | 27° |
| 2026-04-23 10:32 | 49.48988 | -105.74706 | 32345 ft | 492 kts | 27° |
| 2026-04-23 10:33 | 49.55232 | -105.70273 | 32366 ft | 498 kts | 28° |
| 2026-04-23 10:33 | 49.61500 | -105.65812 | 32287 ft | 496 kts | 28° |
| 2026-04-23 10:34 | 49.64637 | -105.63573 | 32418 ft | 502 kts | 28° |
| 2026-04-23 10:34 | 49.67791 | -105.61320 | 32331 ft | 498 kts | 28° |
| 2026-04-23 10:34 | 49.74002 | -105.56876 | 32364 ft | 495 kts | 28° |
| 2026-04-23 10:35 | 49.80283 | -105.52364 | 32300 ft | 499 kts | 28° |
| 2026-04-23 10:35 | 49.86550 | -105.47852 | 32338 ft | 499 kts | 27° |
| 2026-04-23 10:36 | 49.92783 | -105.43352 | 32354 ft | 495 kts | 28° |
| 2026-04-23 10:36 | 49.99048 | -105.38813 | 32361 ft | 501 kts | 27° |
| 2026-04-23 10:37 | 50.05307 | -105.34269 | 32365 ft | 498 kts | 29° |
| 2026-04-23 10:37 | 50.11644 | -105.29652 | 32358 ft | 504 kts | 28° |
| 2026-04-23 10:38 | 50.17940 | -105.25054 | 32369 ft | 497 kts | 28° |
| 2026-04-23 10:38 | 50.24251 | -105.20430 | 32355 ft | 502 kts | 29° |
| 2026-04-23 10:39 | 50.30538 | -105.15810 | 32355 ft | 499 kts | 28° |
| 2026-04-23 10:39 | 50.36870 | -105.11142 | 32358 ft | 506 kts | 28° |
| 2026-04-23 10:40 | 50.43214 | -105.06453 | 32347 ft | 507 kts | 28° |
| 2026-04-23 10:40 | 50.49497 | -105.01798 | 32347 ft | 499 kts | 28° |
| 2026-04-23 10:41 | 50.55796 | -104.97112 | 32346 ft | 502 kts | 28° |
| 2026-04-23 10:41 | 50.62107 | -104.92405 | 32354 ft | 504 kts | 28° |
| 2026-04-23 10:42 | 50.67954 | -104.86627 | 32351 ft | 496 kts | 44° |
| 2026-04-23 10:42 | 50.72963 | -104.79082 | 32371 ft | 499 kts | 47° |
| 2026-04-23 10:43 | 50.77872 | -104.71447 | 32385 ft | 496 kts | 47° |
| 2026-04-23 10:43 | 50.82759 | -104.63798 | 32381 ft | 497 kts | 47° |
| 2026-04-23 10:44 | 50.87654 | -104.56097 | 32382 ft | 501 kts | 47° |
| 2026-04-23 10:44 | 50.92556 | -104.48355 | 32374 ft | 502 kts | 47° |
| 2026-04-23 10:45 | 50.97494 | -104.40527 | 32381 ft | 502 kts | 47° |
| 2026-04-23 10:45 | 51.02395 | -104.32734 | 32378 ft | 504 kts | 48° |
| 2026-04-23 10:46 | 51.07352 | -104.24822 | 32394 ft | 504 kts | 48° |
| 2026-04-23 10:46 | 51.12248 | -104.16984 | 32365 ft | 507 kts | 48° |
| 2026-04-23 10:47 | 51.17216 | -104.09002 | 32374 ft | 504 kts | 48° |
| 2026-04-23 10:47 | 51.22140 | -104.01068 | 32381 ft | 504 kts | 48° |
| 2026-04-23 10:48 | 51.27031 | -103.93161 | 32379 ft | 502 kts | 48° |
| 2026-04-23 10:48 | 51.31975 | -103.85139 | 32396 ft | 508 kts | 48° |
| 2026-04-23 10:49 | 51.36926 | -103.77083 | 32376 ft | 509 kts | 48° |
| 2026-04-23 10:49 | 51.41835 | -103.69068 | 32412 ft | 509 kts | 49° |
| 2026-04-23 10:50 | 51.46769 | -103.60985 | 32422 ft | 509 kts | 48° |
| 2026-04-23 10:50 | 51.51728 | -103.52836 | 32406 ft | 510 kts | 48° |
| 2026-04-23 10:51 | 51.56663 | -103.44698 | 32419 ft | 511 kts | 49° |
| 2026-04-23 10:51 | 51.61594 | -103.36540 | 32426 ft | 516 kts | 49° |
| 2026-04-23 10:52 | 51.66571 | -103.28281 | 32426 ft | 506 kts | 49° |
| 2026-04-23 10:52 | 51.71475 | -103.20112 | 32458 ft | 510 kts | 49° |
| 2026-04-23 10:53 | 51.76411 | -103.11861 | 32422 ft | 511 kts | 49° |
| 2026-04-23 10:53 | 51.81319 | -103.03633 | 32442 ft | 514 kts | 49° |
| 2026-04-23 10:54 | 51.86247 | -102.95343 | 32435 ft | 511 kts | 49° |
| 2026-04-23 10:54 | 51.91185 | -102.87008 | 32440 ft | 511 kts | 49° |
| 2026-04-23 10:55 | 51.96142 | -102.78610 | 32452 ft | 515 kts | 49° |
| 2026-04-23 10:55 | 52.01049 | -102.70272 | 32418 ft | 512 kts | 49° |
| 2026-04-23 10:56 | 52.05979 | -102.61863 | 32423 ft | 517 kts | 49° |
| 2026-04-23 10:56 | 52.10891 | -102.53459 | 32489 ft | 515 kts | 49° |
| 2026-04-23 10:57 | 52.15857 | -102.44930 | 32461 ft | 517 kts | 49° |
| 2026-04-23 10:57 | 52.20763 | -102.36477 | 32453 ft | 519 kts | 49° |
| 2026-04-23 10:58 | 52.25711 | -102.27925 | 32469 ft | 514 kts | 50° |
| 2026-04-23 10:58 | 52.30639 | -102.19373 | 32458 ft | 521 kts | 50° |
| 2026-04-23 10:59 | 52.35601 | -102.10734 | 32469 ft | 522 kts | 50° |
| 2026-04-23 10:59 | 52.40518 | -102.02144 | 32496 ft | 520 kts | 50° |
| 2026-04-23 11:00 | 52.45484 | -101.93434 | 32455 ft | 523 kts | 50° |
| 2026-04-23 11:00 | 52.50415 | -101.84758 | 32468 ft | 521 kts | 50° |
| 2026-04-23 11:01 | 52.55348 | -101.76048 | 32499 ft | 523 kts | 50° |
| 2026-04-23 11:01 | 52.60294 | -101.67284 | 32478 ft | 523 kts | 50° |
| 2026-04-23 11:02 | 52.65214 | -101.58534 | 32510 ft | 523 kts | 50° |
| 2026-04-23 11:02 | 52.70132 | -101.49756 | 32510 ft | 523 kts | 50° |
| 2026-04-23 11:03 | 52.75058 | -101.40934 | 32507 ft | 523 kts | 50° |
| 2026-04-23 11:03 | 52.79984 | -101.32078 | 32518 ft | 524 kts | 50° |
| 2026-04-23 11:04 | 52.84889 | -101.23229 | 32535 ft | 524 kts | 50° |
| 2026-04-23 11:04 | 52.89835 | -101.14273 | 32550 ft | 525 kts | 50° |
| 2026-04-23 11:05 | 52.94730 | -101.05377 | 32571 ft | 526 kts | 50° |
| 2026-04-23 11:05 | 52.99642 | -100.96419 | 32603 ft | 526 kts | 50° |
| 2026-04-23 11:06 | 53.06971 | -100.82992 | 32582 ft | 526 kts | 50° |
| 2026-04-23 11:07 | 53.11892 | -100.73934 | 32577 ft | 525 kts | 50° |
| 2026-04-23 11:07 | 53.16772 | -100.64918 | 32583 ft | 530 kts | 50° |
| 2026-04-23 11:08 | 53.21682 | -100.55814 | 32596 ft | 527 kts | 50° |
| 2026-04-23 11:08 | 53.26571 | -100.46716 | 32573 ft | 528 kts | 50° |
| 2026-04-23 11:09 | 53.31448 | -100.37606 | 32594 ft | 530 kts | 50° |
| 2026-04-23 11:09 | 53.36359 | -100.28399 | 32583 ft | 530 kts | 51° |
| 2026-04-23 11:10 | 53.41251 | -100.19192 | 32581 ft | 530 kts | 51° |
| 2026-04-23 11:10 | 53.46133 | -100.09969 | 32613 ft | 532 kts | 50° |
| 2026-04-23 11:11 | 53.51034 | -100.00676 | 32627 ft | 533 kts | 50° |
| 2026-04-23 11:11 | 53.55927 | -99.91364 | 32609 ft | 530 kts | 50° |
| 2026-04-23 11:12 | 53.60782 | -99.82088 | 32639 ft | 534 kts | 50° |
| 2026-04-23 11:12 | 53.65668 | -99.72717 | 32644 ft | 532 kts | 50° |
| 2026-04-23 11:13 | 53.70556 | -99.63307 | 32651 ft | 534 kts | 50° |
| 2026-04-23 11:13 | 53.75413 | -99.53921 | 32649 ft | 533 kts | 50° |
| 2026-04-23 11:14 | 53.80281 | -99.44478 | 32639 ft | 531 kts | 50° |
| 2026-04-23 11:14 | 53.85128 | -99.35037 | 32661 ft | 533 kts | 50° |
| 2026-04-23 11:15 | 53.89965 | -99.25583 | 32665 ft | 535 kts | 51° |
| 2026-04-23 11:15 | 53.94821 | -99.16052 | 32669 ft | 533 kts | 50° |
| 2026-04-23 11:16 | 53.99657 | -99.06523 | 32684 ft | 534 kts | 50° |
| 2026-04-23 11:16 | 54.04488 | -98.96968 | 32694 ft | 536 kts | 50° |
| 2026-04-23 11:17 | 54.09330 | -98.87354 | 32721 ft | 536 kts | 50° |
| 2026-04-23 11:17 | 54.14187 | -98.77675 | 32712 ft | 536 kts | 50° |
| 2026-04-23 11:18 | 54.19015 | -98.68011 | 32731 ft | 537 kts | 50° |
| 2026-04-23 11:18 | 54.23819 | -98.58360 | 32730 ft | 537 kts | 50° |
| 2026-04-23 11:19 | 54.28651 | -98.48614 | 32738 ft | 538 kts | 50° |
| 2026-04-23 11:19 | 54.33488 | -98.38818 | 32752 ft | 540 kts | 50° |
| 2026-04-23 11:20 | 54.38282 | -98.29070 | 32752 ft | 537 kts | 51° |
| 2026-04-23 11:20 | 54.43108 | -98.19219 | 32766 ft | 540 kts | 50° |
| 2026-04-23 11:21 | 54.47915 | -98.09367 | 32770 ft | 537 kts | 50° |
| 2026-04-23 11:21 | 54.52715 | -97.99490 | 32787 ft | 541 kts | 50° |
| 2026-04-23 11:22 | 54.57496 | -97.89612 | 32798 ft | 540 kts | 50° |
| 2026-04-23 11:22 | 54.62259 | -97.79731 | 32799 ft | 540 kts | 50° |
| 2026-04-23 11:23 | 54.67034 | -97.69786 | 32820 ft | 539 kts | 49° |
| 2026-04-23 11:23 | 54.71811 | -97.59796 | 32822 ft | 540 kts | 50° |
| 2026-04-23 11:24 | 54.76583 | -97.49776 | 32836 ft | 541 kts | 49° |
| 2026-04-23 11:24 | 54.81320 | -97.39786 | 32867 ft | 540 kts | 49° |
| 2026-04-23 11:25 | 54.86093 | -97.29682 | 32870 ft | 540 kts | 50° |
| 2026-04-23 11:25 | 54.90832 | -97.19608 | 32857 ft | 541 kts | 50° |
| 2026-04-23 11:26 | 54.95554 | -97.09528 | 32864 ft | 541 kts | 50° |
| 2026-04-23 11:26 | 55.00055 | -96.99069 | 32869 ft | 540 kts | 58° |
| 2026-04-23 11:27 | 55.03886 | -96.87827 | 32913 ft | 542 kts | 59° |
| 2026-04-23 11:27 | 55.07664 | -96.76470 | 32921 ft | 541 kts | 59° |
| 2026-04-23 11:28 | 55.11405 | -96.65103 | 32883 ft | 540 kts | 60° |
| 2026-04-23 11:28 | 55.15110 | -96.53748 | 32942 ft | 543 kts | 59° |
| 2026-04-23 11:29 | 55.18842 | -96.42234 | 32925 ft | 541 kts | 59° |
| 2026-04-23 11:29 | 55.22539 | -96.30763 | 32932 ft | 541 kts | 60° |
| 2026-04-23 11:30 | 55.26217 | -96.19284 | 32956 ft | 543 kts | 60° |
| 2026-04-23 11:30 | 55.29891 | -96.07761 | 32927 ft | 542 kts | 60° |
| 2026-04-23 11:31 | 55.33553 | -95.96218 | 32950 ft | 542 kts | 60° |
| 2026-04-23 11:31 | 55.37200 | -95.84664 | 32976 ft | 543 kts | 60° |
| 2026-04-23 11:32 | 55.40815 | -95.73158 | 32981 ft | 542 kts | 60° |
| 2026-04-23 11:32 | 55.44460 | -95.61495 | 33005 ft | 542 kts | 60° |
| 2026-04-23 11:33 | 55.48063 | -95.49912 | 33024 ft | 543 kts | 59° |
| 2026-04-23 11:33 | 55.51662 | -95.38287 | 33042 ft | 541 kts | 59° |
| 2026-04-23 11:34 | 55.55259 | -95.26611 | 33026 ft | 541 kts | 60° |
| 2026-04-23 11:34 | 55.58832 | -95.14952 | 33063 ft | 542 kts | 60° |
| 2026-04-23 11:35 | 55.62423 | -95.03178 | 33041 ft | 541 kts | 60° |
| 2026-04-23 11:35 | 55.65966 | -94.91509 | 33083 ft | 543 kts | 60° |
| 2026-04-23 11:36 | 55.69518 | -94.79745 | 33074 ft | 541 kts | 59° |
| 2026-04-23 11:36 | 55.73046 | -94.68005 | 33098 ft | 540 kts | 59° |
| 2026-04-23 11:37 | 55.76565 | -94.56238 | 33094 ft | 542 kts | 59° |
| 2026-04-23 11:37 | 55.80077 | -94.44433 | 33105 ft | 543 kts | 59° |
| 2026-04-23 11:38 | 55.83579 | -94.32603 | 33102 ft | 541 kts | 60° |
| 2026-04-23 11:38 | 55.87066 | -94.20761 | 33114 ft | 541 kts | 60° |
| 2026-04-23 11:39 | 55.90543 | -94.08899 | 33139 ft | 542 kts | 59° |
| 2026-04-23 11:39 | 55.94000 | -93.97039 | 33148 ft | 542 kts | 59° |
| 2026-04-23 11:40 | 55.97464 | -93.85101 | 33153 ft | 542 kts | 59° |
| 2026-04-23 11:40 | 56.00911 | -93.73153 | 33158 ft | 540 kts | 59° |
| 2026-04-23 11:41 | 56.04328 | -93.61255 | 33169 ft | 542 kts | 59° |
| 2026-04-23 11:41 | 56.07761 | -93.49235 | 33156 ft | 541 kts | 59° |
| 2026-04-23 11:42 | 56.11163 | -93.37263 | 33178 ft | 540 kts | 59° |
| 2026-04-23 11:42 | 56.14536 | -93.25333 | 33186 ft | 541 kts | 60° |
| 2026-04-23 11:43 | 56.17931 | -93.13261 | 33188 ft | 541 kts | 60° |
| 2026-04-23 11:43 | 56.21301 | -93.01216 | 33170 ft | 542 kts | 60° |
| 2026-04-23 11:44 | 56.24651 | -92.89180 | 33205 ft | 541 kts | 59° |
| 2026-04-23 11:44 | 56.28017 | -92.77022 | 33219 ft | 544 kts | 59° |
| 2026-04-23 11:45 | 56.31358 | -92.64888 | 33218 ft | 542 kts | 59° |
| 2026-04-23 11:45 | 56.34677 | -92.52773 | 33233 ft | 542 kts | 59° |
| 2026-04-23 11:46 | 56.37996 | -92.40590 | 33243 ft | 543 kts | 59° |
| 2026-04-23 11:46 | 56.41275 | -92.28491 | 33227 ft | 543 kts | 60° |
| 2026-04-23 11:47 | 56.44584 | -92.16220 | 33224 ft | 542 kts | 60° |
| 2026-04-23 11:47 | 56.47863 | -92.03987 | 33247 ft | 543 kts | 59° |
| 2026-04-23 11:48 | 56.51131 | -91.91730 | 33261 ft | 541 kts | 59° |
| 2026-04-23 11:48 | 56.54393 | -91.79436 | 33255 ft | 542 kts | 59° |
| 2026-04-23 11:49 | 56.57645 | -91.67108 | 33263 ft | 542 kts | 59° |
| 2026-04-23 11:49 | 56.60867 | -91.54825 | 33264 ft | 542 kts | 59° |
| 2026-04-23 11:50 | 56.64059 | -91.42592 | 33263 ft | 539 kts | 59° |
| 2026-04-23 11:50 | 56.67267 | -91.30234 | 33255 ft | 541 kts | 60° |
| 2026-04-23 11:51 | 56.70464 | -91.17843 | 33260 ft | 541 kts | 59° |
| 2026-04-23 11:51 | 56.73650 | -91.05426 | 33278 ft | 538 kts | 59° |
| 2026-04-23 11:52 | 56.76792 | -90.93115 | 33277 ft | 540 kts | 59° |
| 2026-04-23 11:52 | 56.79922 | -90.80782 | 33298 ft | 539 kts | 58° |
| 2026-04-23 11:53 | 56.83043 | -90.68420 | 33297 ft | 539 kts | 59° |
| 2026-04-23 11:53 | 56.86163 | -90.55987 | 33290 ft | 535 kts | 58° |
| 2026-04-23 11:54 | 56.89261 | -90.43580 | 33295 ft | 539 kts | 59° |
| 2026-04-23 11:54 | 56.92339 | -90.31173 | 33280 ft | 538 kts | 59° |
| 2026-04-23 11:55 | 56.95392 | -90.18803 | 33322 ft | 537 kts | 59° |
| 2026-04-23 11:55 | 56.98446 | -90.06358 | 33304 ft | 538 kts | 59° |
| 2026-04-23 11:56 | 57.01554 | -89.93971 | 33303 ft | 532 kts | 56° |
| 2026-04-23 11:56 | 57.04857 | -89.81850 | 33342 ft | 531 kts | 56° |
| 2026-04-23 11:57 | 57.08140 | -89.69719 | 33332 ft | 532 kts | 56° |
| 2026-04-23 11:57 | 57.11391 | -89.57605 | 33392 ft | 531 kts | 56° |
| 2026-04-23 11:58 | 57.14639 | -89.45415 | 33332 ft | 531 kts | 56° |
| 2026-04-23 11:58 | 57.17849 | -89.33281 | 33338 ft | 524 kts | 57° |
| 2026-04-23 11:59 | 57.21037 | -89.21181 | 33329 ft | 529 kts | 56° |
| 2026-04-23 11:59 | 57.24220 | -89.09012 | 33356 ft | 526 kts | 56° |
| 2026-04-23 12:00 | 57.27388 | -88.96834 | 33308 ft | 522 kts | 56° |
| 2026-04-23 12:00 | 57.30526 | -88.84714 | 33330 ft | 526 kts | 56° |
| 2026-04-23 12:01 | 57.33666 | -88.72510 | 33369 ft | 521 kts | 56° |
| 2026-04-23 12:01 | 57.36731 | -88.60532 | 33350 ft | 523 kts | 56° |
| 2026-04-23 12:02 | 57.39822 | -88.48398 | 33357 ft | 520 kts | 56° |
| 2026-04-23 12:02 | 57.42902 | -88.36233 | 33363 ft | 521 kts | 56° |
| 2026-04-23 12:03 | 57.45939 | -88.24169 | 33357 ft | 519 kts | 57° |
| 2026-04-23 12:03 | 57.48983 | -88.12013 | 33329 ft | 518 kts | 57° |
| 2026-04-23 12:04 | 57.52012 | -87.99855 | 33369 ft | 518 kts | 57° |
| 2026-04-23 12:04 | 57.55003 | -87.87769 | 33333 ft | 514 kts | 56° |
| 2026-04-23 12:05 | 57.57999 | -87.75625 | 33358 ft | 519 kts | 56° |
| 2026-04-23 12:05 | 57.60970 | -87.63490 | 33355 ft | 517 kts | 56° |
| 2026-04-23 12:06 | 57.63924 | -87.51356 | 33387 ft | 513 kts | 56° |
| 2026-04-23 12:06 | 57.68310 | -87.33232 | 33334 ft | 514 kts | 57° |
| 2026-04-23 12:07 | 57.71234 | -87.21063 | 33353 ft | 513 kts | 57° |
| 2026-04-23 12:07 | 57.74144 | -87.08881 | 33339 ft | 514 kts | 57° |
| 2026-04-23 12:08 | 57.77039 | -86.96684 | 33342 ft | 510 kts | 57° |
| 2026-04-23 12:08 | 57.79924 | -86.84485 | 33345 ft | 514 kts | 57° |
| 2026-04-23 12:09 | 57.82811 | -86.72192 | 33350 ft | 515 kts | 57° |
| 2026-04-23 12:09 | 57.85652 | -86.60020 | 33359 ft | 513 kts | 57° |
| 2026-04-23 12:10 | 57.88486 | -86.47809 | 33341 ft | 509 kts | 57° |
| 2026-04-23 12:10 | 57.91302 | -86.35625 | 33349 ft | 514 kts | 56° |
| 2026-04-23 12:11 | 57.94132 | -86.23292 | 33315 ft | 510 kts | 57° |
| 2026-04-23 12:11 | 57.96919 | -86.11094 | 33336 ft | 515 kts | 57° |
| 2026-04-23 12:12 | 57.99713 | -85.98763 | 33335 ft | 508 kts | 57° |
| 2026-04-23 12:12 | 58.02486 | -85.86491 | 33313 ft | 514 kts | 57° |
| 2026-04-23 12:13 | 58.05245 | -85.74177 | 33330 ft | 508 kts | 58° |
| 2026-04-23 12:13 | 58.07983 | -85.61906 | 33324 ft | 512 kts | 58° |
| 2026-04-23 12:14 | 58.10721 | -85.49546 | 33306 ft | 510 kts | 58° |
| 2026-04-23 12:14 | 58.13435 | -85.37228 | 33381 ft | 507 kts | 58° |
| 2026-04-23 12:15 | 58.16147 | -85.24860 | 33411 ft | 510 kts | 59° |
| 2026-04-23 12:15 | 58.17500 | -85.18662 | 33284 ft | 513 kts | 59° |
| 2026-04-23 12:15 | 58.18856 | -85.12418 | 33380 ft | 508 kts | 59° |
| 2026-04-23 12:16 | 58.21532 | -85.00062 | 33368 ft | 512 kts | 59° |
| 2026-04-23 12:16 | 58.24193 | -84.87682 | 33249 ft | 506 kts | 60° |
| 2026-04-23 12:17 | 58.25517 | -84.81509 | 33402 ft | 509 kts | 60° |
| 2026-04-23 12:17 | 58.26847 | -84.75285 | 33387 ft | 507 kts | 59° |
| 2026-04-23 12:17 | 58.29460 | -84.62985 | 33316 ft | 506 kts | 59° |
| 2026-04-23 12:18 | 58.32076 | -84.50611 | 33423 ft | 507 kts | 59° |
| 2026-04-23 12:18 | 58.34699 | -84.38123 | 33286 ft | 503 kts | 60° |
| 2026-04-23 12:19 | 58.37283 | -84.25754 | 33325 ft | 506 kts | 62° |
| 2026-04-23 12:19 | 58.39857 | -84.13346 | 33337 ft | 502 kts | 62° |
| 2026-04-23 12:20 | 58.42399 | -84.01022 | 33369 ft | 504 kts | 61° |
| 2026-04-23 12:20 | 58.44952 | -83.88569 | 33351 ft | 503 kts | 62° |
| 2026-04-23 12:21 | 58.47474 | -83.76183 | 33353 ft | 500 kts | 62° |
| 2026-04-23 12:21 | 58.49993 | -83.63747 | 33356 ft | 499 kts | 63° |
| 2026-04-23 12:22 | 58.52486 | -83.51356 | 33332 ft | 499 kts | 62° |
| 2026-04-23 12:22 | 58.54958 | -83.38994 | 33339 ft | 501 kts | 62° |
| 2026-04-23 12:23 | 58.57442 | -83.26495 | 33288 ft | 498 kts | 64° |
| 2026-04-23 12:23 | 58.59892 | -83.14089 | 33345 ft | 500 kts | 64° |
| 2026-04-23 12:24 | 58.62320 | -83.01717 | 33332 ft | 498 kts | 64° |
| 2026-04-23 12:24 | 58.64742 | -82.89294 | 33345 ft | 497 kts | 64° |
| 2026-04-23 12:25 | 58.67143 | -82.76904 | 33339 ft | 496 kts | 64° |
| 2026-04-23 12:25 | 58.69524 | -82.64539 | 33319 ft | 498 kts | 64° |
| 2026-04-23 12:26 | 58.71912 | -82.52054 | 33353 ft | 496 kts | 64° |
| 2026-04-23 12:26 | 58.74272 | -82.39644 | 33339 ft | 496 kts | 64° |
| 2026-04-23 12:27 | 58.76629 | -82.27168 | 33359 ft | 497 kts | 65° |
| 2026-04-23 12:27 | 58.78960 | -82.14745 | 33332 ft | 496 kts | 66° |
| 2026-04-23 12:28 | 58.81284 | -82.02276 | 33340 ft | 494 kts | 66° |
| 2026-04-23 12:28 | 58.83592 | -81.89819 | 33341 ft | 495 kts | 66° |
| 2026-04-23 12:29 | 58.85899 | -81.77286 | 33355 ft | 495 kts | 66° |
| 2026-04-23 12:29 | 58.88187 | -81.64767 | 33345 ft | 495 kts | 66° |
| 2026-04-23 12:30 | 58.90464 | -81.52233 | 33328 ft | 495 kts | 66° |
| 2026-04-23 12:30 | 58.92717 | -81.39743 | 33334 ft | 495 kts | 66° |
| 2026-04-23 12:31 | 58.94972 | -81.27157 | 33327 ft | 495 kts | 67° |
| 2026-04-23 12:31 | 58.97207 | -81.14603 | 33341 ft | 494 kts | 68° |
| 2026-04-23 12:32 | 58.99429 | -81.02032 | 33329 ft | 494 kts | 68° |
| 2026-04-23 12:32 | 59.01636 | -80.89466 | 33342 ft | 494 kts | 68° |
| 2026-04-23 12:33 | 59.03832 | -80.76874 | 33321 ft | 494 kts | 68° |
| 2026-04-23 12:33 | 59.06021 | -80.64239 | 33320 ft | 494 kts | 68° |
| 2026-04-23 12:34 | 59.08195 | -80.51604 | 33321 ft | 494 kts | 68° |
| 2026-04-23 12:34 | 59.10358 | -80.38943 | 33329 ft | 494 kts | 68° |
| 2026-04-23 12:35 | 59.12510 | -80.26256 | 33337 ft | 494 kts | 69° |
| 2026-04-23 12:35 | 59.14647 | -80.13569 | 33317 ft | 494 kts | 69° |
| 2026-04-23 12:36 | 59.16765 | -80.00913 | 33324 ft | 493 kts | 69° |
| 2026-04-23 12:36 | 59.19464 | -79.88699 | 33326 ft | 489 kts | 58° |
| 2026-04-23 12:37 | 59.22683 | -79.77035 | 33331 ft | 489 kts | 59° |
| 2026-04-23 12:37 | 59.25815 | -79.65348 | 33342 ft | 489 kts | 59° |
| 2026-04-23 12:38 | 59.28919 | -79.53522 | 33336 ft | 488 kts | 60° |
| 2026-04-23 12:38 | 59.31975 | -79.41711 | 33337 ft | 490 kts | 60° |
| 2026-04-23 12:39 | 59.35031 | -79.29788 | 33327 ft | 489 kts | 62° |
| 2026-04-23 12:39 | 59.38047 | -79.17927 | 33332 ft | 489 kts | 62° |
| 2026-04-23 12:40 | 59.41070 | -79.05956 | 33334 ft | 488 kts | 62° |
| 2026-04-23 12:40 | 59.44066 | -78.94020 | 33345 ft | 489 kts | 62° |
| 2026-04-23 12:41 | 59.47061 | -78.82021 | 33352 ft | 489 kts | 62° |
| 2026-04-23 12:41 | 59.50035 | -78.70038 | 33333 ft | 488 kts | 62° |
| 2026-04-23 12:42 | 59.52988 | -78.58069 | 33348 ft | 488 kts | 63° |
| 2026-04-23 12:42 | 59.55935 | -78.46065 | 33338 ft | 488 kts | 62° |
| 2026-04-23 12:43 | 59.58873 | -78.34026 | 33361 ft | 487 kts | 64° |
| 2026-04-23 12:43 | 59.61813 | -78.21915 | 33343 ft | 487 kts | 64° |
| 2026-04-23 12:44 | 59.64722 | -78.09861 | 33347 ft | 486 kts | 64° |
| 2026-04-23 12:44 | 59.67610 | -77.97826 | 33355 ft | 486 kts | 64° |
| 2026-04-23 12:45 | 59.70477 | -77.85821 | 33348 ft | 487 kts | 64° |
| 2026-04-23 12:45 | 59.73377 | -77.73604 | 33365 ft | 486 kts | 64° |
| 2026-04-23 12:46 | 59.76253 | -77.61419 | 33369 ft | 488 kts | 64° |
| 2026-04-23 12:46 | 59.79111 | -77.49244 | 33372 ft | 492 kts | 64° |
| 2026-04-23 12:47 | 59.81975 | -77.36972 | 33369 ft | 490 kts | 65° |
| 2026-04-23 12:47 | 59.84831 | -77.24667 | 33351 ft | 490 kts | 66° |
| 2026-04-23 12:48 | 59.87663 | -77.12390 | 33357 ft | 489 kts | 66° |
| 2026-04-23 12:48 | 59.90483 | -77.00097 | 33380 ft | 487 kts | 66° |
| 2026-04-23 12:49 | 59.93278 | -76.87844 | 33364 ft | 489 kts | 66° |
| 2026-04-23 12:49 | 59.96067 | -76.75544 | 33384 ft | 487 kts | 66° |
| 2026-04-23 12:50 | 59.98851 | -76.63200 | 33376 ft | 488 kts | 66° |
| 2026-04-23 12:50 | 60.01621 | -76.50840 | 33365 ft | 488 kts | 66° |
| 2026-04-23 12:51 | 60.04373 | -76.38493 | 33369 ft | 489 kts | 67° |
| 2026-04-23 12:51 | 60.07130 | -76.26049 | 33373 ft | 489 kts | 68° |
| 2026-04-23 12:52 | 60.09868 | -76.13615 | 33382 ft | 488 kts | 68° |
| 2026-04-23 12:52 | 60.12600 | -76.01135 | 33376 ft | 489 kts | 68° |
| 2026-04-23 12:53 | 60.15305 | -75.88711 | 33376 ft | 488 kts | 68° |
| 2026-04-23 12:53 | 60.18006 | -75.76221 | 33381 ft | 488 kts | 68° |
| 2026-04-23 12:54 | 60.20695 | -75.63718 | 33376 ft | 488 kts | 68° |
| 2026-04-23 12:54 | 60.23368 | -75.51213 | 33372 ft | 488 kts | 68° |
| 2026-04-23 12:55 | 60.26036 | -75.38656 | 33372 ft | 488 kts | 68° |
| 2026-04-23 12:55 | 60.28699 | -75.26047 | 33384 ft | 488 kts | 69° |
| 2026-04-23 12:56 | 60.31339 | -75.13467 | 33389 ft | 487 kts | 69° |
| 2026-04-23 12:56 | 60.33966 | -75.00875 | 33390 ft | 487 kts | 70° |
| 2026-04-23 12:57 | 60.36583 | -74.88251 | 33394 ft | 487 kts | 70° |
| 2026-04-23 12:57 | 60.39188 | -74.75610 | 33379 ft | 487 kts | 70° |
| 2026-04-23 12:58 | 60.41762 | -74.63038 | 33378 ft | 487 kts | 70° |
| 2026-04-23 12:58 | 60.44338 | -74.50382 | 33367 ft | 487 kts | 70° |
| 2026-04-23 12:59 | 60.46912 | -74.37654 | 33376 ft | 487 kts | 70° |
| 2026-04-23 12:59 | 60.49456 | -74.24992 | 33376 ft | 486 kts | 71° |
| 2026-04-23 13:00 | 60.51985 | -74.12328 | 33391 ft | 487 kts | 71° |
| 2026-04-23 13:00 | 60.54514 | -73.99584 | 33377 ft | 487 kts | 72° |
| 2026-04-23 13:01 | 60.57035 | -73.86803 | 33385 ft | 487 kts | 72° |
| 2026-04-23 13:01 | 60.59533 | -73.74047 | 33372 ft | 487 kts | 72° |
| 2026-04-23 13:02 | 60.62024 | -73.61251 | 33385 ft | 487 kts | 72° |
| 2026-04-23 13:02 | 60.64511 | -73.48392 | 33395 ft | 488 kts | 72° |
| 2026-04-23 13:03 | 60.66971 | -73.35590 | 33375 ft | 488 kts | 72° |
| 2026-04-23 13:03 | 60.69435 | -73.22685 | 33392 ft | 488 kts | 73° |
| 2026-04-23 13:04 | 60.71870 | -73.09848 | 33392 ft | 487 kts | 73° |
| 2026-04-23 13:04 | 60.74282 | -72.97046 | 33373 ft | 486 kts | 73° |
| 2026-04-23 13:05 | 60.76697 | -72.84142 | 33382 ft | 488 kts | 73° |
| 2026-04-23 13:05 | 60.79116 | -72.71130 | 33411 ft | 489 kts | 73° |
| 2026-04-23 13:06 | 60.82693 | -72.51733 | 33398 ft | 487 kts | 74° |
| 2026-04-23 13:07 | 60.85059 | -72.38794 | 33430 ft | 487 kts | 74° |
| 2026-04-23 13:07 | 60.87426 | -72.25758 | 33395 ft | 486 kts | 75° |
| 2026-04-23 13:08 | 60.89776 | -72.12732 | 33390 ft | 486 kts | 75° |
| 2026-04-23 13:08 | 60.92099 | -71.99764 | 33370 ft | 486 kts | 75° |
| 2026-04-23 13:09 | 60.94412 | -71.86762 | 33392 ft | 488 kts | 76° |
| 2026-04-23 13:09 | 60.96719 | -71.73709 | 33388 ft | 485 kts | 76° |
| 2026-04-23 13:10 | 60.99026 | -71.60554 | 33420 ft | 489 kts | 76° |
| 2026-04-23 13:10 | 61.01299 | -71.47515 | 33414 ft | 488 kts | 76° |
| 2026-04-23 13:11 | 61.03583 | -71.34315 | 33448 ft | 488 kts | 77° |
| 2026-04-23 13:11 | 61.05836 | -71.21198 | 33454 ft | 489 kts | 78° |
| 2026-04-23 13:12 | 61.08088 | -71.07999 | 33414 ft | 487 kts | 77° |
| 2026-04-23 13:12 | 61.10321 | -70.94813 | 33465 ft | 489 kts | 78° |
| 2026-04-23 13:13 | 61.12572 | -70.81421 | 33461 ft | 492 kts | 78° |
| 2026-04-23 13:13 | 61.14777 | -70.68222 | 33463 ft | 490 kts | 78° |
| 2026-04-23 13:14 | 61.16990 | -70.54868 | 33457 ft | 491 kts | 78° |
| 2026-04-23 13:14 | 61.19175 | -70.41589 | 33458 ft | 489 kts | 78° |
| 2026-04-23 13:15 | 61.21367 | -70.28162 | 33468 ft | 490 kts | 79° |
| 2026-04-23 13:15 | 61.23535 | -70.14780 | 33452 ft | 493 kts | 79° |
| 2026-04-23 13:16 | 61.25700 | -70.01328 | 33471 ft | 492 kts | 79° |
| 2026-04-23 13:16 | 61.27846 | -69.87887 | 33527 ft | 493 kts | 80° |
| 2026-04-23 13:17 | 61.29973 | -69.74469 | 33463 ft | 491 kts | 80° |
| 2026-04-23 13:17 | 61.32110 | -69.60867 | 33477 ft | 494 kts | 80° |
| 2026-04-23 13:18 | 61.34229 | -69.47295 | 33521 ft | 497 kts | 81° |
| 2026-04-23 13:18 | 61.36337 | -69.33688 | 33504 ft | 493 kts | 81° |
| 2026-04-23 13:19 | 61.38423 | -69.20097 | 33480 ft | 499 kts | 82° |
| 2026-04-23 13:19 | 61.40523 | -69.06335 | 33476 ft | 497 kts | 82° |
| 2026-04-23 13:20 | 61.42598 | -68.92600 | 33481 ft | 498 kts | 82° |
| 2026-04-23 13:20 | 61.44667 | -68.78822 | 33476 ft | 496 kts | 82° |
| 2026-04-23 13:21 | 61.46708 | -68.65101 | 33489 ft | 497 kts | 82° |
| 2026-04-23 13:21 | 61.48751 | -68.51268 | 33469 ft | 495 kts | 82° |
| 2026-04-23 13:22 | 61.50785 | -68.37347 | 33481 ft | 502 kts | 82° |
| 2026-04-23 13:22 | 61.52800 | -68.23498 | 33479 ft | 497 kts | 83° |
| 2026-04-23 13:23 | 61.54796 | -68.09627 | 33482 ft | 499 kts | 83° |
| 2026-04-23 13:23 | 61.56778 | -67.95727 | 33487 ft | 505 kts | 83° |
| 2026-04-23 13:24 | 61.58761 | -67.81751 | 33466 ft | 497 kts | 84° |
| 2026-04-23 13:24 | 61.60724 | -67.67748 | 33483 ft | 503 kts | 84° |
| 2026-04-23 13:25 | 61.62666 | -67.53814 | 33499 ft | 499 kts | 84° |
| 2026-04-23 13:25 | 61.64599 | -67.39791 | 33478 ft | 501 kts | 84° |
| 2026-04-23 13:26 | 61.66516 | -67.25791 | 33491 ft | 500 kts | 85° |
| 2026-04-23 13:26 | 61.68423 | -67.11731 | 33475 ft | 499 kts | 85° |
| 2026-04-23 13:27 | 61.70318 | -66.97648 | 33469 ft | 504 kts | 83° |
| 2026-04-23 13:27 | 61.71572 | -66.90714 | 33479 ft | 516 kts | 75° |
| 2026-04-23 13:27 | 61.73148 | -66.83868 | 33480 ft | 518 kts | 73° |
| 2026-04-23 13:28 | 61.76294 | -66.70197 | 33478 ft | 521 kts | 74° |
| 2026-04-23 13:28 | 61.79346 | -66.56537 | 33492 ft | 519 kts | 75° |
| 2026-04-23 13:29 | 61.82381 | -66.42658 | 33490 ft | 520 kts | 75° |
| 2026-04-23 13:29 | 61.85353 | -66.28880 | 33481 ft | 519 kts | 76° |
| 2026-04-23 13:30 | 61.88318 | -66.14975 | 33476 ft | 516 kts | 76° |
| 2026-04-23 13:30 | 61.91239 | -66.01149 | 33487 ft | 519 kts | 76° |
| 2026-04-23 13:31 | 61.94148 | -65.87266 | 33525 ft | 518 kts | 77° |
| 2026-04-23 13:31 | 61.97060 | -65.73261 | 33538 ft | 522 kts | 76° |
| 2026-04-23 13:32 | 61.99956 | -65.59251 | 33519 ft | 515 kts | 76° |
| 2026-04-23 13:32 | 62.02827 | -65.45233 | 33507 ft | 523 kts | 76° |
| 2026-04-23 13:33 | 62.05698 | -65.31143 | 33504 ft | 521 kts | 77° |
| 2026-04-23 13:33 | 62.08548 | -65.17062 | 33523 ft | 518 kts | 77° |
| 2026-04-23 13:34 | 62.11400 | -65.02854 | 33489 ft | 517 kts | 77° |
| 2026-04-23 13:34 | 62.14212 | -64.88752 | 33486 ft | 517 kts | 77° |
| 2026-04-23 13:35 | 62.17027 | -64.74539 | 33497 ft | 518 kts | 77° |
| 2026-04-23 13:35 | 62.19807 | -64.60390 | 33504 ft | 520 kts | 77° |
| 2026-04-23 13:36 | 62.22587 | -64.46156 | 33477 ft | 521 kts | 77° |
| 2026-04-23 13:36 | 62.25344 | -64.31950 | 33481 ft | 514 kts | 78° |
| 2026-04-23 13:37 | 62.28079 | -64.17728 | 33504 ft | 521 kts | 78° |
| 2026-04-23 13:37 | 62.30819 | -64.03400 | 33509 ft | 516 kts | 79° |
| 2026-04-23 13:38 | 62.33516 | -63.89178 | 33510 ft | 518 kts | 79° |
| 2026-04-23 13:38 | 62.36223 | -63.74799 | 33485 ft | 522 kts | 78° |
| 2026-04-23 13:39 | 62.38916 | -63.60412 | 33475 ft | 517 kts | 78° |
| 2026-04-23 13:39 | 62.41573 | -63.46108 | 33512 ft | 517 kts | 79° |
| 2026-04-23 13:40 | 62.44218 | -63.31741 | 33495 ft | 519 kts | 79° |
| 2026-04-23 13:40 | 62.46859 | -63.17312 | 33494 ft | 517 kts | 79° |
| 2026-04-23 13:41 | 62.49489 | -63.02826 | 33491 ft | 517 kts | 79° |
| 2026-04-23 13:41 | 62.52392 | -62.88391 | 33486 ft | 524 kts | 75° |
| 2026-04-23 13:42 | 62.55515 | -62.74194 | 33486 ft | 525 kts | 75° |
| 2026-04-23 13:42 | 62.58598 | -62.59992 | 33485 ft | 522 kts | 75° |
| 2026-04-23 13:43 | 62.61667 | -62.45667 | 33489 ft | 525 kts | 74° |
| 2026-04-23 13:43 | 62.64730 | -62.31244 | 33487 ft | 527 kts | 76° |
| 2026-04-23 13:44 | 62.67767 | -62.16831 | 33495 ft | 524 kts | 76° |
| 2026-04-23 13:44 | 62.70786 | -62.02374 | 33488 ft | 525 kts | 75° |
| 2026-04-23 13:45 | 62.73272 | -61.90400 | 33493 ft | 526 kts | 75° |
| 2026-04-23 13:45 | 62.76798 | -61.73272 | 33495 ft | 530 kts | 75° |
| 2026-04-23 13:46 | 62.79783 | -61.58681 | 33497 ft | 529 kts | 75° |
| 2026-04-23 13:46 | 62.82756 | -61.44046 | 33495 ft | 525 kts | 75° |
| 2026-04-23 13:47 | 62.85704 | -61.29404 | 33486 ft | 527 kts | 76° |
| 2026-04-23 13:47 | 62.88637 | -61.14745 | 33485 ft | 528 kts | 75° |
| 2026-04-23 13:48 | 62.91567 | -60.99994 | 33486 ft | 527 kts | 75° |
| 2026-04-23 13:48 | 62.94461 | -60.85324 | 33479 ft | 525 kts | 75° |
| 2026-04-23 13:49 | 62.97346 | -60.70571 | 33463 ft | 528 kts | 75° |
| 2026-04-23 13:49 | 63.00213 | -60.55827 | 33478 ft | 525 kts | 75° |
| 2026-04-23 13:50 | 63.03056 | -60.41091 | 33487 ft | 528 kts | 75° |
| 2026-04-23 13:50 | 63.05921 | -60.26125 | 33476 ft | 523 kts | 76° |
| 2026-04-23 13:51 | 63.08714 | -60.11434 | 33484 ft | 526 kts | 76° |
| 2026-04-23 13:51 | 63.11516 | -59.96578 | 33444 ft | 524 kts | 76° |
| 2026-04-23 13:52 | 63.14290 | -59.81781 | 33430 ft | 520 kts | 76° |
| 2026-04-23 13:52 | 63.17059 | -59.66852 | 33450 ft | 529 kts | 76° |
| 2026-04-23 13:53 | 63.19816 | -59.51919 | 33440 ft | 525 kts | 76° |
| 2026-04-23 13:53 | 63.22543 | -59.37024 | 33432 ft | 524 kts | 76° |
| 2026-04-23 13:54 | 63.25265 | -59.22053 | 33445 ft | 519 kts | 77° |
| 2026-04-23 13:54 | 63.27940 | -59.07199 | 33438 ft | 526 kts | 77° |
| 2026-04-23 13:55 | 63.30631 | -58.92162 | 33440 ft | 521 kts | 76° |
| 2026-04-23 13:55 | 63.33305 | -58.77084 | 33428 ft | 526 kts | 77° |
| 2026-04-23 13:56 | 63.35950 | -58.62074 | 33439 ft | 527 kts | 76° |
| 2026-04-23 13:56 | 63.38602 | -58.46906 | 33439 ft | 525 kts | 77° |
| 2026-04-23 13:57 | 63.41232 | -58.31729 | 33419 ft | 524 kts | 77° |
| 2026-04-23 13:57 | 63.43840 | -58.16560 | 33415 ft | 528 kts | 77° |
| 2026-04-23 13:58 | 63.46334 | -58.01278 | 33411 ft | 518 kts | 83° |
| 2026-04-23 13:58 | 63.47947 | -57.85766 | 33430 ft | 518 kts | 86° |
| 2026-04-23 13:59 | 63.49463 | -57.70117 | 33421 ft | 514 kts | 86° |
| 2026-04-23 13:59 | 63.50937 | -57.54504 | 33410 ft | 513 kts | 86° |
| 2026-04-23 14:00 | 63.52138 | -57.41573 | 33421 ft | 514 kts | 86° |
| 2026-04-23 14:00 | 63.53817 | -57.23195 | 33421 ft | 512 kts | 86° |
| 2026-04-23 14:01 | 63.55217 | -57.07651 | 33414 ft | 509 kts | 87° |
| 2026-04-23 14:01 | 63.56594 | -56.92072 | 33384 ft | 513 kts | 86° |
| 2026-04-23 14:02 | 63.57969 | -56.76328 | 33434 ft | 513 kts | 88° |
| 2026-04-23 14:02 | 63.59317 | -56.60693 | 33409 ft | 516 kts | 87° |
| 2026-04-23 14:03 | 63.60663 | -56.44857 | 33404 ft | 515 kts | 86° |
| 2026-04-23 14:03 | 63.61987 | -56.29076 | 33394 ft | 513 kts | 88° |
| 2026-04-23 14:04 | 63.63275 | -56.13500 | 33375 ft | 515 kts | 87° |
| 2026-04-23 14:04 | 63.64561 | -55.97724 | 33392 ft | 512 kts | 87° |
| 2026-04-23 14:05 | 63.65823 | -55.82005 | 33380 ft | 516 kts | 87° |
| 2026-04-23 14:05 | 63.67079 | -55.66172 | 33380 ft | 510 kts | 87° |
| 2026-04-23 14:06 | 63.68303 | -55.50470 | 33378 ft | 512 kts | 87° |
| 2026-04-23 14:06 | 63.69517 | -55.34674 | 33392 ft | 510 kts | 88° |
| 2026-04-23 14:07 | 63.70709 | -55.18906 | 33372 ft | 514 kts | 88° |
| 2026-04-23 14:07 | 63.72471 | -54.95187 | 33374 ft | 512 kts | 87° |
| 2026-04-23 14:08 | 63.73616 | -54.79500 | 33388 ft | 505 kts | 87° |
| 2026-04-23 14:08 | 63.74741 | -54.63762 | 33366 ft | 512 kts | 87° |
| 2026-04-23 14:09 | 63.75853 | -54.48007 | 33383 ft | 504 kts | 87° |
| 2026-04-23 14:09 | 63.76944 | -54.32248 | 33373 ft | 509 kts | 88° |
| 2026-04-23 14:10 | 63.78013 | -54.16584 | 33378 ft | 508 kts | 88° |
| 2026-04-23 14:10 | 63.79063 | -54.00943 | 33358 ft | 503 kts | 88° |
| 2026-04-23 14:11 | 63.80094 | -53.85306 | 33363 ft | 506 kts | 88° |
| 2026-04-23 14:11 | 63.81112 | -53.69613 | 33387 ft | 502 kts | 88° |
| 2026-04-23 14:12 | 63.82103 | -53.54051 | 33368 ft | 503 kts | 88° |
| 2026-04-23 14:12 | 63.83079 | -53.38463 | 33364 ft | 502 kts | 87° |
| 2026-04-23 14:13 | 63.84042 | -53.22803 | 33363 ft | 500 kts | 88° |
| 2026-04-23 14:13 | 63.84988 | -53.07100 | 33378 ft | 502 kts | 88° |
| 2026-04-23 14:14 | 63.85908 | -52.91592 | 33379 ft | 498 kts | 88° |
| 2026-04-23 14:14 | 63.86819 | -52.75897 | 33379 ft | 499 kts | 88° |
| 2026-04-23 14:15 | 63.87705 | -52.60348 | 33380 ft | 498 kts | 88° |
| 2026-04-23 14:15 | 63.88570 | -52.44878 | 33377 ft | 497 kts | 88° |
| 2026-04-23 14:16 | 63.89423 | -52.29292 | 33378 ft | 495 kts | 88° |
| 2026-04-23 14:16 | 63.90256 | -52.13759 | 33396 ft | 497 kts | 88° |
| 2026-04-23 14:17 | 63.91069 | -51.98315 | 33386 ft | 496 kts | 88° |
| 2026-04-23 14:17 | 63.91867 | -51.82794 | 33382 ft | 495 kts | 88° |
| 2026-04-23 14:18 | 63.92652 | -51.67192 | 33394 ft | 497 kts | 88° |
| 2026-04-23 14:18 | 63.93415 | -51.51734 | 33399 ft | 498 kts | 88° |
| 2026-04-23 14:19 | 63.94168 | -51.36118 | 33391 ft | 496 kts | 88° |
| 2026-04-23 14:19 | 63.94899 | -51.20576 | 33365 ft | 495 kts | 88° |
| 2026-04-23 14:20 | 63.95614 | -51.05053 | 33337 ft | 493 kts | 89° |
| 2026-04-23 14:20 | 63.96309 | -50.89553 | 33294 ft | 494 kts | 88° |
| 2026-04-23 14:21 | 63.96986 | -50.74071 | 33283 ft | 497 kts | 88° |
| 2026-04-23 14:21 | 63.97649 | -50.58576 | 33308 ft | 494 kts | 88° |
| 2026-04-23 14:22 | 63.98298 | -50.42995 | 33334 ft | 493 kts | 88° |
| 2026-04-23 14:22 | 63.98926 | -50.27505 | 33329 ft | 490 kts | 89° |
| 2026-04-23 14:23 | 63.99535 | -50.12065 | 33323 ft | 491 kts | 89° |
| 2026-04-23 14:23 | 64.00112 | -49.96572 | 33309 ft | 494 kts | 90° |
| 2026-04-23 14:24 | 64.00635 | -49.81192 | 33346 ft | 485 kts | 90° |
| 2026-04-23 14:24 | 64.01138 | -49.65702 | 33344 ft | 494 kts | 89° |
| 2026-04-23 14:25 | 64.01628 | -49.50256 | 33319 ft | 488 kts | 89° |
| 2026-04-23 14:25 | 64.02100 | -49.34772 | 33299 ft | 490 kts | 90° |
| 2026-04-23 14:26 | 64.02555 | -49.19293 | 33278 ft | 490 kts | 90° |
| 2026-04-23 14:26 | 64.02992 | -49.03912 | 33273 ft | 489 kts | 89° |
| 2026-04-23 14:27 | 64.03412 | -48.88467 | 33289 ft | 490 kts | 90° |
| 2026-04-23 14:27 | 64.03817 | -48.73019 | 33282 ft | 486 kts | 90° |
| 2026-04-23 14:28 | 64.04205 | -48.57569 | 33267 ft | 487 kts | 89° |
| 2026-04-23 14:28 | 64.04575 | -48.42194 | 33244 ft | 488 kts | 89° |
| 2026-04-23 14:29 | 64.04930 | -48.26748 | 33232 ft | 487 kts | 90° |
| 2026-04-23 14:29 | 64.05265 | -48.11476 | 33222 ft | 486 kts | 90° |
| 2026-04-23 14:30 | 64.05585 | -47.96126 | 33228 ft | 484 kts | 90° |
| 2026-04-23 14:30 | 64.05890 | -47.80785 | 33247 ft | 483 kts | 89° |
| 2026-04-23 14:31 | 64.06177 | -47.65515 | 33263 ft | 482 kts | 90° |
| 2026-04-23 14:31 | 64.06448 | -47.50139 | 33268 ft | 484 kts | 89° |
| 2026-04-23 14:32 | 64.06701 | -47.34997 | 33289 ft | 482 kts | 89° |
| 2026-04-23 14:32 | 64.06940 | -47.19703 | 33300 ft | 480 kts | 90° |
| 2026-04-23 14:33 | 64.07161 | -47.04540 | 33308 ft | 480 kts | 90° |
| 2026-04-23 14:33 | 64.07367 | -46.89301 | 33323 ft | 478 kts | 90° |
| 2026-04-23 14:34 | 64.07555 | -46.74148 | 33325 ft | 479 kts | 90° |
| 2026-04-23 14:34 | 64.07729 | -46.59039 | 33340 ft | 478 kts | 89° |
| 2026-04-23 14:35 | 64.07886 | -46.43913 | 33354 ft | 479 kts | 90° |
| 2026-04-23 14:35 | 64.08028 | -46.28708 | 33366 ft | 475 kts | 90° |
| 2026-04-23 14:36 | 64.08154 | -46.13528 | 33376 ft | 475 kts | 90° |
| 2026-04-23 14:36 | 64.08263 | -45.98499 | 33377 ft | 476 kts | 90° |
| 2026-04-23 14:37 | 64.08357 | -45.83426 | 33383 ft | 476 kts | 90° |
| 2026-04-23 14:37 | 64.08437 | -45.68317 | 33409 ft | 473 kts | 90° |
| 2026-04-23 14:38 | 64.08499 | -45.53304 | 33391 ft | 475 kts | 90° |
| 2026-04-23 14:38 | 64.08546 | -45.38315 | 33422 ft | 472 kts | 90° |
| 2026-04-23 14:39 | 64.08578 | -45.23360 | 33443 ft | 470 kts | 91° |
| 2026-04-23 14:39 | 64.08594 | -45.08477 | 33429 ft | 472 kts | 91° |
| 2026-04-23 14:40 | 64.08594 | -44.93538 | 33462 ft | 469 kts | 90° |
| 2026-04-23 14:40 | 64.08581 | -44.78645 | 33439 ft | 470 kts | 90° |
| 2026-04-23 14:41 | 64.08552 | -44.63837 | 33466 ft | 470 kts | 90° |
| 2026-04-23 14:41 | 64.08507 | -44.48953 | 33443 ft | 465 kts | 90° |
| 2026-04-23 14:42 | 64.08448 | -44.34239 | 33430 ft | 467 kts | 91° |
| 2026-04-23 14:42 | 64.08374 | -44.19510 | 33418 ft | 465 kts | 91° |
| 2026-04-23 14:43 | 64.08285 | -44.04763 | 33428 ft | 465 kts | 91° |
| 2026-04-23 14:43 | 64.08181 | -43.90020 | 33404 ft | 465 kts | 91° |
| 2026-04-23 14:44 | 64.08063 | -43.75306 | 33393 ft | 465 kts | 91° |
| 2026-04-23 14:44 | 64.07930 | -43.60596 | 33399 ft | 465 kts | 91° |
| 2026-04-23 14:45 | 64.07780 | -43.45800 | 33346 ft | 464 kts | 91° |
| 2026-04-23 14:45 | 64.07617 | -43.31108 | 33366 ft | 462 kts | 91° |
| 2026-04-23 14:46 | 64.07441 | -43.16495 | 33352 ft | 465 kts | 91° |
| 2026-04-23 14:46 | 64.07248 | -43.01787 | 33349 ft | 463 kts | 91° |
| 2026-04-23 14:47 | 64.07040 | -42.87058 | 33318 ft | 464 kts | 91° |
| 2026-04-23 14:47 | 64.06818 | -42.72408 | 33303 ft | 462 kts | 91° |
| 2026-04-23 14:48 | 64.06582 | -42.57751 | 33295 ft | 462 kts | 91° |
| 2026-04-23 14:48 | 64.06333 | -42.43236 | 33290 ft | 462 kts | 91° |
| 2026-04-23 14:49 | 64.06068 | -42.28606 | 33287 ft | 462 kts | 92° |
| 2026-04-23 14:49 | 64.05789 | -42.14040 | 33284 ft | 463 kts | 92° |
| 2026-04-23 14:50 | 64.05493 | -41.99368 | 33253 ft | 461 kts | 91° |
| 2026-04-23 14:50 | 64.05184 | -41.84773 | 33250 ft | 459 kts | 91° |
| 2026-04-23 14:51 | 64.04864 | -41.70298 | 33249 ft | 463 kts | 91° |
| 2026-04-23 14:51 | 64.04524 | -41.55654 | 33248 ft | 461 kts | 91° |
| 2026-04-23 14:52 | 64.04175 | -41.41228 | 33231 ft | 456 kts | 91° |
| 2026-04-23 14:52 | 64.03809 | -41.26711 | 33232 ft | 456 kts | 92° |
| 2026-04-23 14:53 | 64.03432 | -41.12288 | 33226 ft | 458 kts | 92° |
| 2026-04-23 14:53 | 64.03039 | -40.97820 | 33215 ft | 455 kts | 92° |
| 2026-04-23 14:54 | 64.02636 | -40.83505 | 33214 ft | 459 kts | 92° |
| 2026-04-23 14:54 | 64.02215 | -40.69087 | 33238 ft | 454 kts | 91° |
| 2026-04-23 14:55 | 64.01780 | -40.54657 | 33254 ft | 456 kts | 91° |
| 2026-04-23 14:55 | 64.01333 | -40.40301 | 33261 ft | 458 kts | 91° |
| 2026-04-23 14:56 | 64.00868 | -40.25873 | 33269 ft | 456 kts | 92° |
| 2026-04-23 14:56 | 64.00392 | -40.11529 | 33271 ft | 453 kts | 92° |
| 2026-04-23 14:57 | 63.99293 | -39.97426 | 33273 ft | 460 kts | 104° |
| 2026-04-23 14:57 | 63.97308 | -39.83556 | 33271 ft | 461 kts | 105° |
| 2026-04-23 14:58 | 63.95261 | -39.69875 | 33279 ft | 460 kts | 105° |
| 2026-04-23 14:58 | 63.93154 | -39.56142 | 33282 ft | 457 kts | 105° |
| 2026-04-23 14:59 | 63.91029 | -39.42520 | 33290 ft | 457 kts | 105° |
| 2026-04-23 14:59 | 63.88889 | -39.28965 | 33288 ft | 460 kts | 106° |
| 2026-04-23 15:00 | 63.86724 | -39.15399 | 33293 ft | 458 kts | 106° |
| 2026-04-23 15:00 | 63.84561 | -39.01949 | 33296 ft | 459 kts | 106° |
| 2026-04-23 15:01 | 63.82372 | -38.88450 | 33301 ft | 456 kts | 106° |
| 2026-04-23 15:01 | 63.80172 | -38.74990 | 33302 ft | 455 kts | 106° |
| 2026-04-23 15:02 | 63.77961 | -38.61560 | 33304 ft | 455 kts | 105° |
| 2026-04-23 15:02 | 63.75755 | -38.48252 | 33304 ft | 456 kts | 105° |
| 2026-04-23 15:03 | 63.73515 | -38.34841 | 33303 ft | 454 kts | 106° |
| 2026-04-23 15:03 | 63.71288 | -38.21600 | 33309 ft | 455 kts | 106° |
| 2026-04-23 15:04 | 63.69042 | -38.08337 | 33301 ft | 457 kts | 106° |
| 2026-04-23 15:04 | 63.66774 | -37.95045 | 33311 ft | 453 kts | 105° |
| 2026-04-23 15:05 | 63.64496 | -37.81783 | 33310 ft | 454 kts | 106° |
| 2026-04-23 15:05 | 63.62226 | -37.68662 | 33311 ft | 453 kts | 105° |
| 2026-04-23 15:06 | 63.59947 | -37.55569 | 33314 ft | 455 kts | 105° |
| 2026-04-23 15:06 | 63.57633 | -37.42375 | 33318 ft | 452 kts | 106° |
| 2026-04-23 15:07 | 63.55320 | -37.29276 | 33323 ft | 452 kts | 106° |
| 2026-04-23 15:07 | 63.52992 | -37.16178 | 33323 ft | 454 kts | 106° |
| 2026-04-23 15:08 | 63.50655 | -37.03120 | 33327 ft | 451 kts | 106° |
| 2026-04-23 15:09 | 63.47144 | -36.83662 | 33329 ft | 451 kts | 106° |
| 2026-04-23 15:09 | 63.44792 | -36.70737 | 33336 ft | 450 kts | 105° |
| 2026-04-23 15:10 | 63.42827 | -36.60001 | 33343 ft | 451 kts | 105° |
| 2026-04-23 15:10 | 63.40055 | -36.44957 | 33346 ft | 451 kts | 106° |
| 2026-04-23 15:11 | 63.37662 | -36.32064 | 33358 ft | 449 kts | 107° |
| 2026-04-23 15:11 | 63.35272 | -36.19268 | 33359 ft | 449 kts | 106° |
| 2026-04-23 15:12 | 63.32857 | -36.06423 | 33372 ft | 448 kts | 107° |
| 2026-04-23 15:12 | 63.30442 | -35.93660 | 33369 ft | 449 kts | 106° |
| 2026-04-23 15:13 | 63.28008 | -35.80873 | 33375 ft | 449 kts | 106° |
| 2026-04-23 15:13 | 63.25588 | -35.68251 | 33370 ft | 445 kts | 106° |
| 2026-04-23 15:14 | 63.23156 | -35.55639 | 33375 ft | 444 kts | 106° |
| 2026-04-23 15:14 | 63.20712 | -35.43031 | 33372 ft | 452 kts | 106° |
| 2026-04-23 15:14 | 63.19462 | -35.36606 | 33492 ft | 463 kts | 106° |
| 2026-04-23 15:15 | 63.18173 | -35.30011 | 34061 ft | 464 kts | 107° |
| 2026-04-23 15:15 | 63.16912 | -35.23604 | 34888 ft | 457 kts | 107° |
| 2026-04-23 15:15 | 63.15649 | -35.17197 | 35593 ft | 453 kts | 107° |
| 2026-04-23 15:15 | 63.14387 | -35.10810 | 36086 ft | 452 kts | 107° |
| 2026-04-23 15:16 | 63.13129 | -35.04454 | 36484 ft | 454 kts | 108° |
| 2026-04-23 15:16 | 63.11864 | -34.98086 | 36943 ft | 455 kts | 108° |
| 2026-04-23 15:16 | 63.10591 | -34.91698 | 37454 ft | 456 kts | 108° |
| 2026-04-23 15:16 | 63.09320 | -34.85337 | 37352 ft | 456 kts | 108° |
| 2026-04-23 15:17 | 63.08043 | -34.78975 | 37360 ft | 456 kts | 108° |
| 2026-04-23 15:17 | 63.05479 | -34.66254 | 37394 ft | 454 kts | 108° |
| 2026-04-23 15:18 | 63.02920 | -34.53635 | 37335 ft | 453 kts | 108° |
| 2026-04-23 15:18 | 63.00338 | -34.40972 | 37373 ft | 455 kts | 108° |
| 2026-04-23 15:19 | 62.97742 | -34.28328 | 37405 ft | 456 kts | 109° |
| 2026-04-23 15:19 | 62.95127 | -34.15666 | 37352 ft | 456 kts | 109° |
| 2026-04-23 15:20 | 62.92950 | -34.05184 | 37359 ft | 455 kts | 109° |
| 2026-04-23 15:20 | 62.89875 | -33.90466 | 37380 ft | 455 kts | 109° |
| 2026-04-23 15:21 | 62.87242 | -33.77950 | 37373 ft | 455 kts | 109° |
| 2026-04-23 15:21 | 62.84574 | -33.65340 | 37358 ft | 457 kts | 109° |
| 2026-04-23 15:22 | 62.81917 | -33.52860 | 37396 ft | 456 kts | 109° |
| 2026-04-23 15:22 | 62.79249 | -33.40401 | 37374 ft | 456 kts | 109° |
| 2026-04-23 15:23 | 62.76546 | -33.27853 | 37393 ft | 456 kts | 110° |
| 2026-04-23 15:23 | 62.73842 | -33.15377 | 37387 ft | 456 kts | 110° |
| 2026-04-23 15:24 | 62.71127 | -33.02922 | 37397 ft | 456 kts | 110° |
| 2026-04-23 15:24 | 62.68405 | -32.90509 | 37384 ft | 456 kts | 110° |
| 2026-04-23 15:25 | 62.65685 | -32.78175 | 37404 ft | 455 kts | 110° |
| 2026-04-23 15:25 | 62.62938 | -32.65793 | 37410 ft | 457 kts | 110° |
| 2026-04-23 15:26 | 62.60180 | -32.53435 | 37447 ft | 455 kts | 110° |
| 2026-04-23 15:26 | 62.57404 | -32.41064 | 37340 ft | 456 kts | 110° |
| 2026-04-23 15:26 | 62.56030 | -32.34972 | 37478 ft | 455 kts | 111° |
| 2026-04-23 15:27 | 62.54622 | -32.28738 | 37250 ft | 458 kts | 111° |
| 2026-04-23 15:27 | 62.53237 | -32.22633 | 37484 ft | 457 kts | 111° |
| 2026-04-23 15:27 | 62.51819 | -32.16394 | 37471 ft | 459 kts | 111° |
| 2026-04-23 15:28 | 62.49001 | -32.04059 | 37314 ft | 453 kts | 111° |
| 2026-04-23 15:28 | 62.46188 | -31.91805 | 37473 ft | 457 kts | 111° |
| 2026-04-23 15:29 | 62.43362 | -31.79575 | 37386 ft | 458 kts | 111° |
| 2026-04-23 15:29 | 62.40527 | -31.67370 | 37540 ft | 456 kts | 111° |
| 2026-04-23 15:29 | 62.39084 | -31.61179 | 37370 ft | 459 kts | 111° |
| 2026-04-23 15:30 | 62.37664 | -31.55110 | 37404 ft | 460 kts | 111° |
| 2026-04-23 15:30 | 62.34797 | -31.42911 | 37364 ft | 459 kts | 111° |
| 2026-04-23 15:31 | 62.31928 | -31.30767 | 37414 ft | 459 kts | 112° |
| 2026-04-23 15:31 | 62.29030 | -31.18569 | 37379 ft | 456 kts | 112° |
| 2026-04-23 15:32 | 62.26138 | -31.06467 | 37410 ft | 457 kts | 112° |
| 2026-04-23 15:32 | 62.23240 | -30.94403 | 37579 ft | 457 kts | 112° |
| 2026-04-23 15:32 | 62.21773 | -30.88323 | 37308 ft | 458 kts | 112° |
| 2026-04-23 15:33 | 62.20334 | -30.82375 | 37344 ft | 458 kts | 112° |
| 2026-04-23 15:33 | 62.17408 | -30.70327 | 37569 ft | 458 kts | 112° |
| 2026-04-23 15:33 | 62.15922 | -30.64237 | 37422 ft | 458 kts | 112° |
| 2026-04-23 15:34 | 62.14473 | -30.58313 | 37456 ft | 455 kts | 112° |
| 2026-04-23 15:34 | 62.11530 | -30.46330 | 37423 ft | 456 kts | 112° |
| 2026-04-23 15:35 | 62.08570 | -30.34343 | 37432 ft | 457 kts | 113° |
| 2026-04-23 15:35 | 62.05604 | -30.22394 | 37437 ft | 458 kts | 113° |
| 2026-04-23 15:36 | 62.02624 | -30.10459 | 37377 ft | 458 kts | 113° |
| 2026-04-23 15:36 | 61.99677 | -29.98575 | 37439 ft | 458 kts | 112° |
| 2026-04-23 15:37 | 61.96785 | -29.86526 | 37408 ft | 458 kts | 112° |
| 2026-04-23 15:37 | 61.94373 | -29.76513 | 37461 ft | 458 kts | 112° |
| 2026-04-23 15:37 | 61.92449 | -29.68552 | 37358 ft | 457 kts | 112° |
| 2026-04-23 15:38 | 61.91000 | -29.62573 | 37458 ft | 458 kts | 112° |
| 2026-04-23 15:38 | 61.88079 | -29.50568 | 37421 ft | 458 kts | 112° |
| 2026-04-23 15:39 | 61.85158 | -29.38631 | 37451 ft | 458 kts | 112° |
| 2026-04-23 15:39 | 61.82237 | -29.26752 | 37420 ft | 459 kts | 113° |
| 2026-04-23 15:40 | 61.79290 | -29.14832 | 37384 ft | 459 kts | 113° |
| 2026-04-23 15:40 | 61.76333 | -29.02939 | 37433 ft | 460 kts | 113° |
| 2026-04-23 15:41 | 61.73365 | -28.91066 | 37398 ft | 459 kts | 113° |
| 2026-04-23 15:41 | 61.70391 | -28.79231 | 37408 ft | 459 kts | 114° |
| 2026-04-23 15:42 | 61.67407 | -28.67418 | 37384 ft | 458 kts | 114° |
| 2026-04-23 15:42 | 61.64402 | -28.55586 | 37413 ft | 459 kts | 114° |
| 2026-04-23 15:43 | 61.61413 | -28.43883 | 37427 ft | 457 kts | 113° |
| 2026-04-23 15:43 | 61.58395 | -28.32124 | 37418 ft | 458 kts | 114° |
| 2026-04-23 15:44 | 61.55352 | -28.20335 | 37433 ft | 459 kts | 114° |
| 2026-04-23 15:44 | 61.52321 | -28.08650 | 37440 ft | 460 kts | 114° |
| 2026-04-23 15:45 | 61.49257 | -27.96903 | 37437 ft | 459 kts | 114° |
| 2026-04-23 15:45 | 61.46212 | -27.85284 | 37418 ft | 459 kts | 114° |
| 2026-04-23 15:46 | 61.43133 | -27.73601 | 37393 ft | 460 kts | 115° |
| 2026-04-23 15:46 | 61.40064 | -27.62016 | 37387 ft | 459 kts | 115° |
| 2026-04-23 15:47 | 61.36969 | -27.50393 | 37425 ft | 459 kts | 115° |
| 2026-04-23 15:47 | 61.33869 | -27.38813 | 37441 ft | 459 kts | 115° |
| 2026-04-23 15:48 | 61.30774 | -27.27307 | 37439 ft | 460 kts | 115° |
| 2026-04-23 15:48 | 61.27641 | -27.15724 | 37450 ft | 460 kts | 115° |
| 2026-04-23 15:49 | 61.24526 | -27.04262 | 37423 ft | 459 kts | 115° |
| 2026-04-23 15:49 | 61.21383 | -26.92759 | 37422 ft | 460 kts | 116° |
| 2026-04-23 15:50 | 61.18226 | -26.81261 | 37400 ft | 460 kts | 116° |
| 2026-04-23 15:50 | 61.15071 | -26.69831 | 37405 ft | 459 kts | 116° |
| 2026-04-23 15:51 | 61.11901 | -26.58402 | 37415 ft | 460 kts | 116° |
| 2026-04-23 15:51 | 61.08712 | -26.46961 | 37420 ft | 459 kts | 116° |
| 2026-04-23 15:52 | 61.05530 | -26.35607 | 37426 ft | 460 kts | 116° |
| 2026-04-23 15:52 | 61.02325 | -26.24226 | 37403 ft | 460 kts | 117° |
| 2026-04-23 15:53 | 60.99126 | -26.12922 | 37424 ft | 461 kts | 117° |
| 2026-04-23 15:53 | 60.95883 | -26.01518 | 37417 ft | 460 kts | 117° |
| 2026-04-23 15:54 | 60.92640 | -25.90173 | 37420 ft | 460 kts | 117° |
| 2026-04-23 15:54 | 60.89420 | -25.78966 | 37400 ft | 459 kts | 117° |
| 2026-04-23 15:55 | 60.86164 | -25.67685 | 37416 ft | 461 kts | 117° |
| 2026-04-23 15:55 | 60.82888 | -25.56396 | 37431 ft | 461 kts | 116° |
| 2026-04-23 15:56 | 60.79635 | -25.45237 | 37412 ft | 462 kts | 117° |
| 2026-04-23 15:56 | 60.76347 | -25.34013 | 37404 ft | 462 kts | 118° |
| 2026-04-23 15:57 | 60.73045 | -25.22797 | 37393 ft | 462 kts | 118° |
| 2026-04-23 15:57 | 60.69727 | -25.11585 | 37400 ft | 461 kts | 118° |
| 2026-04-23 15:58 | 60.66420 | -25.00461 | 37422 ft | 462 kts | 118° |
| 2026-04-23 15:58 | 60.63080 | -24.89278 | 37406 ft | 464 kts | 118° |
| 2026-04-23 15:59 | 60.59750 | -24.78187 | 37403 ft | 461 kts | 118° |
| 2026-04-23 15:59 | 60.56391 | -24.67048 | 37402 ft | 464 kts | 118° |
| 2026-04-23 16:00 | 60.53024 | -24.55943 | 37398 ft | 463 kts | 118° |
| 2026-04-23 16:00 | 60.49672 | -24.44935 | 37392 ft | 463 kts | 118° |
| 2026-04-23 16:01 | 60.46287 | -24.33876 | 37402 ft | 462 kts | 119° |
| 2026-04-23 16:01 | 60.42888 | -24.22821 | 37401 ft | 463 kts | 119° |
| 2026-04-23 16:02 | 60.39479 | -24.11786 | 37402 ft | 463 kts | 119° |
| 2026-04-23 16:02 | 60.36059 | -24.00769 | 37404 ft | 466 kts | 120° |
| 2026-04-23 16:03 | 60.32648 | -23.89834 | 37394 ft | 466 kts | 119° |
| 2026-04-23 16:03 | 60.29201 | -23.78834 | 37381 ft | 465 kts | 120° |
| 2026-04-23 16:04 | 60.25749 | -23.67874 | 37399 ft | 464 kts | 120° |
| 2026-04-23 16:04 | 60.22292 | -23.56945 | 37383 ft | 465 kts | 120° |
| 2026-04-23 16:05 | 60.19404 | -23.47856 | 37374 ft | 465 kts | 120° |
| 2026-04-23 16:05 | 60.15316 | -23.35051 | 37390 ft | 466 kts | 120° |
| 2026-04-23 16:06 | 60.11813 | -23.24132 | 37390 ft | 466 kts | 120° |
| 2026-04-23 16:06 | 60.08311 | -23.13271 | 37385 ft | 466 kts | 121° |
| 2026-04-23 16:07 | 60.04813 | -23.02469 | 37378 ft | 466 kts | 121° |
| 2026-04-23 16:07 | 60.01287 | -22.91635 | 37388 ft | 465 kts | 121° |
| 2026-04-23 16:08 | 59.97743 | -22.80793 | 37378 ft | 467 kts | 121° |
| 2026-04-23 16:08 | 59.94207 | -22.70028 | 37386 ft | 466 kts | 121° |
| 2026-04-23 16:09 | 59.90655 | -22.59263 | 37377 ft | 467 kts | 121° |
| 2026-04-23 16:09 | 59.87082 | -22.48482 | 37375 ft | 467 kts | 121° |
| 2026-04-23 16:10 | 59.83484 | -22.37677 | 37374 ft | 465 kts | 121° |
| 2026-04-23 16:10 | 59.79900 | -22.26963 | 37379 ft | 467 kts | 122° |
| 2026-04-23 16:11 | 59.76312 | -22.16287 | 37373 ft | 466 kts | 122° |
| 2026-04-23 16:11 | 59.72710 | -22.05619 | 37377 ft | 466 kts | 122° |
| 2026-04-23 16:12 | 59.69105 | -21.94991 | 37362 ft | 466 kts | 122° |
| 2026-04-23 16:12 | 59.65499 | -21.84402 | 37366 ft | 467 kts | 122° |
| 2026-04-23 16:13 | 59.61863 | -21.73780 | 37364 ft | 466 kts | 122° |
| 2026-04-23 16:13 | 59.56421 | -21.57966 | 37354 ft | 467 kts | 122° |
| 2026-04-23 16:14 | 59.52781 | -21.47449 | 37353 ft | 466 kts | 122° |
| 2026-04-23 16:14 | 59.49142 | -21.36982 | 37376 ft | 466 kts | 122° |
| 2026-04-23 16:15 | 59.45454 | -21.26419 | 37355 ft | 468 kts | 123° |
| 2026-04-23 16:15 | 59.41771 | -21.15921 | 37363 ft | 467 kts | 123° |
| 2026-04-23 16:16 | 59.38091 | -21.05476 | 37377 ft | 467 kts | 123° |
| 2026-04-23 16:16 | 59.34405 | -20.95059 | 37340 ft | 468 kts | 123° |
| 2026-04-23 16:17 | 59.30700 | -20.84637 | 37364 ft | 467 kts | 123° |
| 2026-04-23 16:17 | 59.27006 | -20.74290 | 37353 ft | 468 kts | 123° |
| 2026-04-23 16:18 | 59.23295 | -20.63943 | 37345 ft | 468 kts | 123° |
| 2026-04-23 16:18 | 59.19552 | -20.53549 | 37338 ft | 468 kts | 123° |
| 2026-04-23 16:19 | 59.15812 | -20.43212 | 37350 ft | 468 kts | 123° |
| 2026-04-23 16:19 | 59.12070 | -20.32915 | 37349 ft | 468 kts | 123° |
| 2026-04-23 16:20 | 59.08293 | -20.22565 | 37334 ft | 468 kts | 123° |
| 2026-04-23 16:20 | 59.04539 | -20.12326 | 37344 ft | 469 kts | 124° |
| 2026-04-23 16:21 | 59.00747 | -20.02023 | 37337 ft | 469 kts | 124° |
| 2026-04-23 16:21 | 58.97407 | -19.91394 | 37337 ft | 466 kts | 112° |
| 2026-04-23 16:22 | 58.94810 | -19.79947 | 37335 ft | 466 kts | 112° |
| 2026-04-23 16:22 | 58.92129 | -19.68548 | 37323 ft | 465 kts | 113° |
| 2026-04-23 16:23 | 58.89409 | -19.57294 | 37330 ft | 466 kts | 113° |
| 2026-04-23 16:23 | 58.86640 | -19.46040 | 37321 ft | 465 kts | 114° |
| 2026-04-23 16:24 | 58.83844 | -19.34799 | 37314 ft | 464 kts | 114° |
| 2026-04-23 16:24 | 58.81035 | -19.23603 | 37330 ft | 466 kts | 115° |
| 2026-04-23 16:25 | 58.78217 | -19.12444 | 37325 ft | 466 kts | 115° |
| 2026-04-23 16:25 | 58.75373 | -19.01256 | 37317 ft | 464 kts | 115° |
| 2026-04-23 16:26 | 58.72527 | -18.90113 | 37309 ft | 464 kts | 115° |
| 2026-04-23 16:26 | 58.69664 | -18.78966 | 37318 ft | 466 kts | 115° |
| 2026-04-23 16:27 | 58.66806 | -18.67895 | 37326 ft | 466 kts | 115° |
| 2026-04-23 16:27 | 58.63934 | -18.56825 | 37315 ft | 465 kts | 115° |
| 2026-04-23 16:28 | 58.61048 | -18.45758 | 37310 ft | 465 kts | 115° |
| 2026-04-23 16:28 | 58.58160 | -18.34735 | 37318 ft | 465 kts | 115° |
| 2026-04-23 16:29 | 58.55269 | -18.23758 | 37317 ft | 464 kts | 115° |
| 2026-04-23 16:29 | 58.52362 | -18.12774 | 37308 ft | 464 kts | 116° |
| 2026-04-23 16:30 | 58.49446 | -18.01808 | 37313 ft | 464 kts | 115° |
| 2026-04-23 16:30 | 58.46524 | -17.90874 | 37304 ft | 464 kts | 116° |
| 2026-04-23 16:31 | 58.43599 | -17.79979 | 37300 ft | 464 kts | 115° |
| 2026-04-23 16:31 | 58.40670 | -17.69124 | 37310 ft | 464 kts | 116° |
| 2026-04-23 16:32 | 58.37710 | -17.58202 | 37316 ft | 464 kts | 116° |
| 2026-04-23 16:32 | 58.34749 | -17.47334 | 37300 ft | 463 kts | 116° |
| 2026-04-23 16:33 | 58.31789 | -17.36518 | 37305 ft | 465 kts | 116° |
| 2026-04-23 16:33 | 58.28811 | -17.25691 | 37296 ft | 463 kts | 116° |
| 2026-04-23 16:34 | 58.25821 | -17.14869 | 37303 ft | 463 kts | 116° |
| 2026-04-23 16:34 | 58.22848 | -17.04163 | 37282 ft | 462 kts | 116° |
| 2026-04-23 16:35 | 58.19850 | -16.93413 | 37281 ft | 462 kts | 117° |
| 2026-04-23 16:35 | 58.16851 | -16.82711 | 37276 ft | 462 kts | 117° |
| 2026-04-23 16:36 | 58.13850 | -16.72055 | 37287 ft | 462 kts | 117° |
| 2026-04-23 16:36 | 58.10834 | -16.61391 | 37290 ft | 462 kts | 117° |
| 2026-04-23 16:37 | 58.07798 | -16.50707 | 37261 ft | 460 kts | 117° |
| 2026-04-23 16:37 | 58.04781 | -16.40141 | 37278 ft | 462 kts | 117° |
| 2026-04-23 16:38 | 58.01731 | -16.29506 | 37288 ft | 462 kts | 117° |
| 2026-04-23 16:38 | 57.98685 | -16.18936 | 37273 ft | 461 kts | 117° |
| 2026-04-23 16:39 | 57.95616 | -16.08332 | 37280 ft | 462 kts | 117° |
| 2026-04-23 16:39 | 57.92557 | -15.97813 | 37268 ft | 460 kts | 117° |
| 2026-04-23 16:40 | 57.89479 | -15.87274 | 37254 ft | 461 kts | 117° |
| 2026-04-23 16:40 | 57.86382 | -15.76721 | 37261 ft | 461 kts | 117° |
| 2026-04-23 16:41 | 57.83303 | -15.66276 | 37245 ft | 460 kts | 117° |
| 2026-04-23 16:41 | 57.80201 | -15.55799 | 37255 ft | 461 kts | 117° |
| 2026-04-23 16:42 | 57.77112 | -15.45414 | 37250 ft | 460 kts | 117° |
| 2026-04-23 16:42 | 57.73974 | -15.34911 | 37239 ft | 461 kts | 118° |
| 2026-04-23 16:43 | 57.70855 | -15.24516 | 37251 ft | 462 kts | 118° |
| 2026-04-23 16:43 | 57.67732 | -15.14157 | 37257 ft | 461 kts | 118° |
| 2026-04-23 16:44 | 57.64580 | -15.03747 | 37245 ft | 460 kts | 118° |
| 2026-04-23 16:44 | 57.61443 | -14.93434 | 37238 ft | 461 kts | 118° |
| 2026-04-23 16:45 | 57.58291 | -14.83114 | 37229 ft | 460 kts | 118° |
| 2026-04-23 16:45 | 57.55116 | -14.72766 | 37246 ft | 461 kts | 118° |
| 2026-04-23 16:46 | 57.51953 | -14.62501 | 37227 ft | 460 kts | 118° |
| 2026-04-23 16:46 | 57.48780 | -14.52251 | 37224 ft | 460 kts | 118° |
| 2026-04-23 16:47 | 57.45586 | -14.41978 | 37220 ft | 460 kts | 118° |
| 2026-04-23 16:47 | 57.42404 | -14.31784 | 37224 ft | 460 kts | 120° |
| 2026-04-23 16:48 | 57.39208 | -14.21592 | 37209 ft | 459 kts | 120° |
| 2026-04-23 16:48 | 57.35988 | -14.11368 | 37236 ft | 460 kts | 120° |
| 2026-04-23 16:49 | 57.32771 | -14.01197 | 37226 ft | 459 kts | 120° |
| 2026-04-23 16:49 | 57.29535 | -13.91011 | 37224 ft | 460 kts | 119° |
| 2026-04-23 16:50 | 57.26315 | -13.80918 | 37232 ft | 460 kts | 120° |
| 2026-04-23 16:50 | 57.23077 | -13.70812 | 37203 ft | 460 kts | 120° |
| 2026-04-23 16:51 | 57.19830 | -13.60718 | 37208 ft | 460 kts | 120° |
| 2026-04-23 16:51 | 57.16563 | -13.50609 | 37197 ft | 460 kts | 120° |
| 2026-04-23 16:52 | 57.13305 | -13.40567 | 37221 ft | 460 kts | 120° |
| 2026-04-23 16:52 | 57.10025 | -13.30504 | 37185 ft | 459 kts | 120° |
| 2026-04-23 16:53 | 57.06739 | -13.20463 | 37188 ft | 459 kts | 120° |
| 2026-04-23 16:53 | 57.03464 | -13.10496 | 37179 ft | 458 kts | 121° |
| 2026-04-23 16:54 | 56.99443 | -13.01461 | 37175 ft | 461 kts | 137° |
| 2026-04-23 16:54 | 56.94224 | -12.94750 | 37192 ft | 464 kts | 147° |
| 2026-04-23 16:55 | 56.88668 | -12.88734 | 37218 ft | 465 kts | 148° |
| 2026-04-23 16:55 | 56.83313 | -12.82274 | 37205 ft | 461 kts | 137° |
| 2026-04-23 16:56 | 56.79178 | -12.73565 | 37206 ft | 459 kts | 121° |
| 2026-04-23 16:56 | 56.76165 | -12.63301 | 37172 ft | 458 kts | 116° |
| 2026-04-23 16:57 | 56.73317 | -12.53069 | 37160 ft | 457 kts | 116° |
| 2026-04-23 16:57 | 56.70445 | -12.42709 | 37185 ft | 458 kts | 116° |
| 2026-04-23 16:58 | 56.67585 | -12.32392 | 37171 ft | 458 kts | 116° |
| 2026-04-23 16:58 | 56.64731 | -12.22113 | 37151 ft | 457 kts | 116° |
| 2026-04-23 16:59 | 56.61890 | -12.11918 | 37131 ft | 456 kts | 116° |
| 2026-04-23 16:59 | 56.59021 | -12.01664 | 37150 ft | 457 kts | 116° |
| 2026-04-23 17:00 | 56.56159 | -11.91473 | 37163 ft | 457 kts | 116° |
| 2026-04-23 17:00 | 56.53287 | -11.81289 | 37117 ft | 455 kts | 116° |
| 2026-04-23 17:01 | 56.50388 | -11.71055 | 37133 ft | 457 kts | 116° |
| 2026-04-23 17:01 | 56.47497 | -11.60896 | 37131 ft | 456 kts | 116° |
| 2026-04-23 17:02 | 56.44602 | -11.50765 | 37152 ft | 455 kts | 116° |
| 2026-04-23 17:02 | 56.41689 | -11.40614 | 37115 ft | 455 kts | 116° |
| 2026-04-23 17:03 | 56.38777 | -11.30515 | 37152 ft | 458 kts | 117° |
| 2026-04-23 17:03 | 56.35852 | -11.20412 | 37124 ft | 454 kts | 117° |
| 2026-04-23 17:04 | 56.32944 | -11.10413 | 37108 ft | 455 kts | 117° |
| 2026-04-23 17:04 | 56.30004 | -11.00343 | 37125 ft | 456 kts | 117° |
| 2026-04-23 17:05 | 56.27063 | -10.90315 | 37133 ft | 454 kts | 117° |
| 2026-04-23 17:05 | 56.24120 | -10.80326 | 37121 ft | 456 kts | 117° |
| 2026-04-23 17:06 | 56.21157 | -10.70307 | 37142 ft | 456 kts | 117° |
| 2026-04-23 17:06 | 56.18197 | -10.60343 | 37127 ft | 455 kts | 117° |
| 2026-04-23 17:07 | 56.15200 | -10.50301 | 37089 ft | 454 kts | 117° |
| 2026-04-23 17:07 | 56.12236 | -10.40407 | 37111 ft | 455 kts | 117° |
| 2026-04-23 17:08 | 56.09226 | -10.30400 | 37084 ft | 454 kts | 118° |
| 2026-04-23 17:08 | 56.06246 | -10.20540 | 37081 ft | 455 kts | 118° |
| 2026-04-23 17:09 | 56.03228 | -10.10591 | 37112 ft | 455 kts | 118° |
| 2026-04-23 17:09 | 56.00220 | -10.00771 | 37078 ft | 455 kts | 120° |
| 2026-04-23 17:10 | 55.96877 | -9.91246 | 37091 ft | 454 kts | 121° |
| 2026-04-23 17:10 | 55.93483 | -9.81738 | 37079 ft | 453 kts | 121° |
| 2026-04-23 17:11 | 55.90099 | -9.72298 | 37067 ft | 452 kts | 121° |
| 2026-04-23 17:11 | 55.86715 | -9.62897 | 37074 ft | 454 kts | 121° |
| 2026-04-23 17:12 | 55.83308 | -9.53472 | 37084 ft | 454 kts | 121° |
| 2026-04-23 17:12 | 55.79909 | -9.44104 | 37066 ft | 453 kts | 121° |
| 2026-04-23 17:13 | 55.76505 | -9.34759 | 37046 ft | 454 kts | 122° |
| 2026-04-23 17:13 | 55.73063 | -9.25346 | 37077 ft | 453 kts | 122° |
| 2026-04-23 17:14 | 55.69657 | -9.16065 | 37082 ft | 453 kts | 122° |
| 2026-04-23 17:14 | 55.66223 | -9.06746 | 37054 ft | 451 kts | 122° |
| 2026-04-23 17:15 | 55.62792 | -8.97469 | 37045 ft | 452 kts | 122° |
| 2026-04-23 17:15 | 55.59352 | -8.88204 | 37036 ft | 452 kts | 122° |
| 2026-04-23 17:16 | 55.55927 | -8.79013 | 37050 ft | 451 kts | 122° |
| 2026-04-23 17:16 | 55.52470 | -8.69772 | 37045 ft | 451 kts | 122° |
| 2026-04-23 17:17 | 55.49043 | -8.60645 | 37039 ft | 450 kts | 122° |
| 2026-04-23 17:17 | 55.45565 | -8.51416 | 37045 ft | 452 kts | 122° |
| 2026-04-23 17:18 | 55.40399 | -8.37773 | 37026 ft | 450 kts | 122° |
| 2026-04-23 17:19 | 55.36918 | -8.28624 | 37019 ft | 450 kts | 123° |
| 2026-04-23 17:19 | 55.33458 | -8.19562 | 37019 ft | 451 kts | 123° |
| 2026-04-23 17:20 | 55.29969 | -8.10456 | 37007 ft | 449 kts | 123° |
| 2026-04-23 17:21 | 55.22999 | -7.92371 | 37005 ft | 448 kts | 122° |
| 2026-04-23 17:21 | 55.17779 | -7.78909 | 36995 ft | 449 kts | 123° |
| 2026-04-23 17:22 | 55.12510 | -7.65399 | 36991 ft | 448 kts | 122° |
| 2026-04-23 17:23 | 55.07264 | -7.52018 | 36982 ft | 448 kts | 122° |
| 2026-04-23 17:24 | 55.02014 | -7.38702 | 36970 ft | 446 kts | 122° |
| 2026-04-23 17:24 | 54.96714 | -7.25328 | 36979 ft | 447 kts | 123° |
| 2026-04-23 17:25 | 54.91422 | -7.12049 | 36966 ft | 446 kts | 123° |
| 2026-04-23 17:26 | 54.84354 | -6.94422 | 36955 ft | 447 kts | 123° |
| 2026-04-23 17:27 | 54.79028 | -6.81223 | 36934 ft | 446 kts | 123° |
| 2026-04-23 17:27 | 54.75490 | -6.72492 | 36924 ft | 445 kts | 123° |
| 2026-04-23 17:28 | 54.71930 | -6.63739 | 36948 ft | 447 kts | 123° |
| 2026-04-23 17:28 | 54.68368 | -6.55013 | 36929 ft | 445 kts | 123° |
| 2026-04-23 17:29 | 54.64811 | -6.46328 | 36938 ft | 446 kts | 123° |
| 2026-04-23 17:30 | 54.60039 | -6.34724 | 36952 ft | 446 kts | 124° |
| 2026-04-23 17:30 | 54.54089 | -6.20331 | 36927 ft | 444 kts | 124° |
| 2026-04-23 17:31 | 54.50508 | -6.11709 | 36920 ft | 445 kts | 124° |
| 2026-04-23 17:31 | 54.46898 | -6.03046 | 36927 ft | 446 kts | 124° |
| 2026-04-23 17:32 | 54.43288 | -5.94415 | 36932 ft | 446 kts | 124° |
| 2026-04-23 17:32 | 54.39690 | -5.85841 | 36909 ft | 443 kts | 124° |
| 2026-04-23 17:33 | 54.36109 | -5.77337 | 36907 ft | 445 kts | 124° |
| 2026-04-23 17:33 | 54.32489 | -5.68771 | 36922 ft | 444 kts | 123° |
| 2026-04-23 17:34 | 54.28874 | -5.60244 | 36912 ft | 444 kts | 124° |
| 2026-04-23 17:35 | 54.23450 | -5.47506 | 36906 ft | 443 kts | 123° |
| 2026-04-23 17:35 | 54.18013 | -5.34804 | 36896 ft | 443 kts | 124° |
| 2026-04-23 17:36 | 54.14371 | -5.26330 | 36903 ft | 444 kts | 124° |
| 2026-04-23 17:36 | 54.10726 | -5.17878 | 36899 ft | 443 kts | 124° |
| 2026-04-23 17:37 | 54.07084 | -5.09461 | 36897 ft | 443 kts | 124° |
| 2026-04-23 17:38 | 54.01626 | -4.96901 | 36884 ft | 443 kts | 124° |
| 2026-04-23 17:38 | 53.97974 | -4.88532 | 36891 ft | 443 kts | 124° |
| 2026-04-23 17:39 | 53.94319 | -4.80120 | 36896 ft | 443 kts | 124° |
| 2026-04-23 17:39 | 53.90681 | -4.71743 | 36858 ft | 443 kts | 124° |
| 2026-04-23 17:40 | 53.87039 | -4.63388 | 36871 ft | 442 kts | 124° |
| 2026-04-23 17:40 | 53.83404 | -4.55078 | 36820 ft | 442 kts | 124° |
| 2026-04-23 17:41 | 53.79747 | -4.46746 | 36850 ft | 442 kts | 124° |
| 2026-04-23 17:41 | 53.74238 | -4.34241 | 36860 ft | 444 kts | 124° |
| 2026-04-23 17:42 | 53.68730 | -4.21803 | 36850 ft | 442 kts | 124° |
| 2026-04-23 17:43 | 53.65061 | -4.13549 | 36824 ft | 444 kts | 124° |
| 2026-04-23 17:43 | 53.61363 | -4.05261 | 36825 ft | 443 kts | 124° |
| 2026-04-23 17:44 | 53.57689 | -3.97053 | 36813 ft | 444 kts | 124° |
| 2026-04-23 17:44 | 53.52125 | -3.84671 | 36852 ft | 443 kts | 124° |
| 2026-04-23 17:45 | 53.46570 | -3.72372 | 36789 ft | 443 kts | 124° |
| 2026-04-23 17:46 | 53.41015 | -3.60132 | 36812 ft | 444 kts | 124° |
| 2026-04-23 17:46 | 53.36971 | -3.52308 | 36800 ft | 445 kts | 128° |
| 2026-04-23 17:47 | 53.32875 | -3.44592 | 36787 ft | 443 kts | 128° |
| 2026-04-23 17:48 | 53.26751 | -3.33031 | 36764 ft | 445 kts | 129° |
| 2026-04-23 17:48 | 53.22666 | -3.25324 | 36750 ft | 444 kts | 129° |
| 2026-04-23 17:49 | 53.18588 | -3.17649 | 36766 ft | 444 kts | 129° |
| 2026-04-23 17:49 | 53.14495 | -3.09963 | 36783 ft | 443 kts | 129° |
| 2026-04-23 17:50 | 53.10410 | -3.02315 | 36763 ft | 445 kts | 129° |
| 2026-04-23 17:50 | 53.04262 | -2.90847 | 36712 ft | 443 kts | 128° |
| 2026-04-23 17:51 | 53.00166 | -2.83234 | 36741 ft | 445 kts | 129° |
| 2026-04-23 17:52 | 52.94009 | -2.71836 | 36750 ft | 445 kts | 129° |
| 2026-04-23 17:52 | 52.87845 | -2.60479 | 36727 ft | 443 kts | 129° |
| 2026-04-23 17:53 | 52.81588 | -2.49193 | 36720 ft | 447 kts | 134° |
| 2026-04-23 17:54 | 52.76561 | -2.43016 | 36708 ft | 451 kts | 142° |
| 2026-04-23 17:54 | 52.68756 | -2.34404 | 36735 ft | 452 kts | 142° |
| 2026-04-23 17:55 | 52.60904 | -2.25784 | 36717 ft | 454 kts | 142° |
| 2026-04-23 17:56 | 52.55701 | -2.20095 | 36673 ft | 452 kts | 143° |
| 2026-04-23 17:56 | 52.47832 | -2.11520 | 36654 ft | 452 kts | 143° |
| 2026-04-23 17:57 | 52.42584 | -2.05823 | 36707 ft | 452 kts | 143° |
| 2026-04-23 17:58 | 52.34741 | -1.97336 | 36658 ft | 453 kts | 143° |
| 2026-04-23 17:58 | 52.29486 | -1.91673 | 36633 ft | 454 kts | 143° |
| 2026-04-23 17:59 | 52.24233 | -1.86030 | 36639 ft | 453 kts | 143° |
| 2026-04-23 17:59 | 52.18956 | -1.80375 | 36636 ft | 454 kts | 143° |
| 2026-04-23 18:00 | 52.13710 | -1.74770 | 36644 ft | 454 kts | 143° |
| 2026-04-23 18:00 | 52.08416 | -1.69129 | 36578 ft | 455 kts | 143° |
| 2026-04-23 18:01 | 52.03163 | -1.63535 | 36587 ft | 454 kts | 142° |
| 2026-04-23 18:01 | 51.97848 | -1.57902 | 36647 ft | 457 kts | 143° |
| 2026-04-23 18:02 | 51.93465 | -1.53280 | 36617 ft | 453 kts | 143° |
| 2026-04-23 18:02 | 51.87270 | -1.46761 | 36590 ft | 458 kts | 143° |
| 2026-04-23 18:03 | 51.81984 | -1.41211 | 36594 ft | 455 kts | 143° |
| 2026-04-23 18:03 | 51.76660 | -1.35634 | 36576 ft | 459 kts | 143° |
| 2026-04-23 18:04 | 51.71326 | -1.30064 | 36579 ft | 458 kts | 143° |
| 2026-04-23 18:04 | 51.66022 | -1.24542 | 36601 ft | 457 kts | 143° |
| 2026-04-23 18:05 | 51.60683 | -1.18998 | 36569 ft | 457 kts | 143° |
| 2026-04-23 18:05 | 51.55341 | -1.13466 | 36578 ft | 458 kts | 143° |
| 2026-04-23 18:06 | 51.49992 | -1.07943 | 36633 ft | 460 kts | 144° |
| 2026-04-23 18:06 | 51.44659 | -1.02454 | 36549 ft | 457 kts | 143° |
| 2026-04-23 18:07 | 51.39304 | -0.96956 | 36570 ft | 458 kts | 144° |
| 2026-04-23 18:07 | 51.33951 | -0.91475 | 36510 ft | 461 kts | 144° |
| 2026-04-23 18:08 | 51.29452 | -0.86881 | 36542 ft | 460 kts | 143° |
| 2026-04-23 18:08 | 51.23137 | -0.80451 | 36527 ft | 462 kts | 143° |
| 2026-04-23 18:09 | 51.17748 | -0.74981 | 36530 ft | 462 kts | 143° |
| 2026-04-23 18:09 | 51.12381 | -0.69549 | 36506 ft | 460 kts | 144° |
| 2026-04-23 18:10 | 51.06959 | -0.64075 | 36501 ft | 463 kts | 144° |
| 2026-04-23 18:10 | 51.01608 | -0.58515 | 36491 ft | 461 kts | 142° |
| 2026-04-23 18:11 | 50.96281 | -0.52800 | 36500 ft | 464 kts | 142° |
| 2026-04-23 18:11 | 50.90936 | -0.47096 | 36527 ft | 462 kts | 142° |
| 2026-04-23 18:12 | 50.85639 | -0.41466 | 36475 ft | 463 kts | 142° |
| 2026-04-23 18:12 | 50.80284 | -0.35793 | 36486 ft | 462 kts | 142° |
| 2026-04-23 18:13 | 50.74934 | -0.30146 | 36500 ft | 463 kts | 143° |
| 2026-04-23 18:13 | 50.69585 | -0.24515 | 36486 ft | 467 kts | 143° |
| 2026-04-23 18:14 | 50.64241 | -0.18907 | 36457 ft | 466 kts | 143° |
| 2026-04-23 18:14 | 50.58859 | -0.13274 | 36469 ft | 465 kts | 143° |
| 2026-04-23 18:15 | 50.53486 | -0.07667 | 36470 ft | 465 kts | 143° |
| 2026-04-23 18:15 | 50.48091 | -0.02052 | 36447 ft | 467 kts | 143° |
| 2026-04-23 18:16 | 50.42713 | 0.03527 | 36436 ft | 466 kts | 143° |
| 2026-04-23 18:16 | 50.37280 | 0.09151 | 36458 ft | 467 kts | 143° |
| 2026-04-23 18:17 | 50.29196 | 0.17488 | 36439 ft | 468 kts | 143° |
| 2026-04-23 18:17 | 50.23769 | 0.23066 | 36427 ft | 469 kts | 143° |
| 2026-04-23 18:18 | 50.19591 | 0.27350 | 36416 ft | 468 kts | 143° |